<?xml version="1.0" encoding="UTF-8"?><gpx xmlns="http://www.topografix.com/GPX/1/1" xmlns:xsi="http://www.w3.org/2001/XMLSchema-instance" creator="komoot gpx writer" version="1.1" xsi:schemaLocation="http://www.topografix.com/GPX/1/1 http://www.topografix.com/GPX/1/1/gpx.xsd">

	<metadata>
		<name>SM-Tour2016-1 Weissenbourg nach Germersheim</name>
		<desc/>
		<link href="http://www.komoot.de">
			<text>komoot homepage</text>
			<type>text/html</type>
		</link>
	</metadata>
	
<trk>
<name>SM-Tour2016-1 Weissenbourg nach Germersheim</name>
<trkseg>
<trkpt lat="49.03748259513341" lon="7.942795411159339">
<ele>160.93252563476562</ele>
<time>2016-07-30T15:42:33Z</time>
</trkpt>
<trkpt lat="49.03744959513341" lon="7.942817411159339">
<ele>160.95652563476563</ele>
<time>2016-07-30T15:42:34Z</time>
</trkpt>
<trkpt lat="49.03726159513341" lon="7.942906411159339">
<ele>161.13152563476564</ele>
<time>2016-07-30T15:42:39Z</time>
</trkpt>
<trkpt lat="49.03716459513341" lon="7.9429464111593395">
<ele>161.19252563476564</ele>
<time>2016-07-30T15:42:41Z</time>
</trkpt>
<trkpt lat="49.03710059513341" lon="7.9429524111593395">
<ele>161.23152563476563</ele>
<time>2016-07-30T15:42:43Z</time>
</trkpt>
<trkpt lat="49.03697359513341" lon="7.94296641115934">
<ele>161.24652563476562</ele>
<time>2016-07-30T15:42:46Z</time>
</trkpt>
<trkpt lat="49.03691459513341" lon="7.94299941115934">
<ele>161.30252563476563</ele>
<time>2016-07-30T15:42:48Z</time>
</trkpt>
<trkpt lat="49.03691859513341" lon="7.94331541115934">
<ele>161.37452563476563</ele>
<time>2016-07-30T15:42:53Z</time>
</trkpt>
<trkpt lat="49.03691859513341" lon="7.943352411159339">
<ele>161.33952563476564</ele>
<time>2016-07-30T15:42:53Z</time>
</trkpt>
<trkpt lat="49.03691859513341" lon="7.94341741115934">
<ele>161.29352563476564</ele>
<time>2016-07-30T15:42:54Z</time>
</trkpt>
<trkpt lat="49.03691859513341" lon="7.94343041115934">
<ele>161.29052563476566</ele>
<time>2016-07-30T15:42:54Z</time>
</trkpt>
<trkpt lat="49.036913595133406" lon="7.94351941115934">
<ele>161.29352563476564</ele>
<time>2016-07-30T15:42:56Z</time>
</trkpt>
<trkpt lat="49.03688759513341" lon="7.9436964111593396">
<ele>161.35952563476565</ele>
<time>2016-07-30T15:42:59Z</time>
</trkpt>
<trkpt lat="49.03684559513341" lon="7.943973411159339">
<ele>161.23552563476565</ele>
<time>2016-07-30T15:43:03Z</time>
</trkpt>
<trkpt lat="49.036773595133404" lon="7.944356411159339">
<ele>161.25052563476564</ele>
<time>2016-07-30T15:43:09Z</time>
</trkpt>
<trkpt lat="49.036714595133404" lon="7.94464341115934">
<ele>161.12852563476562</ele>
<time>2016-07-30T15:43:13Z</time>
</trkpt>
<trkpt lat="49.036680595133404" lon="7.9447064111593395">
<ele>161.12952563476563</ele>
<time>2016-07-30T15:43:14Z</time>
</trkpt>
<trkpt lat="49.03660359513341" lon="7.944737411159339">
<ele>161.13452563476562</ele>
<time>2016-07-30T15:43:16Z</time>
</trkpt>
<trkpt lat="49.03656959513341" lon="7.944729411159339">
<ele>161.11952563476564</ele>
<time>2016-07-30T15:43:17Z</time>
</trkpt>
<trkpt lat="49.03659959513341" lon="7.944819411159339">
<ele>160.99952563476563</ele>
<time>2016-07-30T15:43:18Z</time>
</trkpt>
<trkpt lat="49.03666359513341" lon="7.94519041115934">
<ele>160.99952563476563</ele>
<time>2016-07-30T15:43:24Z</time>
</trkpt>
<trkpt lat="49.03667459513341" lon="7.945359411159339">
<ele>160.84452563476563</ele>
<time>2016-07-30T15:43:26Z</time>
</trkpt>
<trkpt lat="49.03667759513341" lon="7.945447411159339">
<ele>160.78852563476562</ele>
<time>2016-07-30T15:43:27Z</time>
</trkpt>
<trkpt lat="49.03667759513341" lon="7.945633411159339">
<ele>160.77752563476562</ele>
<time>2016-07-30T15:43:29Z</time>
</trkpt>
<trkpt lat="49.03666759513341" lon="7.9460404111593395">
<ele>160.4595256347656</ele>
<time>2016-07-30T15:43:34Z</time>
</trkpt>
<trkpt lat="49.03664759513341" lon="7.946344411159339">
<ele>160.3045256347656</ele>
<time>2016-07-30T15:43:38Z</time>
</trkpt>
<trkpt lat="49.03657759513341" lon="7.946979411159339">
<ele>159.6315256347656</ele>
<time>2016-07-30T15:43:46Z</time>
</trkpt>
<trkpt lat="49.036550595133406" lon="7.947740411159339">
<ele>159.1005256347656</ele>
<time>2016-07-30T15:43:56Z</time>
</trkpt>
<trkpt lat="49.036516595133406" lon="7.948132411159339">
<ele>158.9655256347656</ele>
<time>2016-07-30T15:44:01Z</time>
</trkpt>
<trkpt lat="49.03646759513341" lon="7.948610411159339">
<ele>158.82452563476562</ele>
<time>2016-07-30T15:44:08Z</time>
</trkpt>
<trkpt lat="49.03645459513341" lon="7.9487344111593385">
<ele>158.77852563476563</ele>
<time>2016-07-30T15:44:09Z</time>
</trkpt>
<trkpt lat="49.03643159513341" lon="7.948913411159339">
<ele>158.70752563476563</ele>
<time>2016-07-30T15:44:12Z</time>
</trkpt>
<trkpt lat="49.03642259513341" lon="7.948987411159338">
<ele>158.68152563476562</ele>
<time>2016-07-30T15:44:13Z</time>
</trkpt>
<trkpt lat="49.03644159513341" lon="7.949042411159338">
<ele>158.66452563476562</ele>
<time>2016-07-30T15:44:14Z</time>
</trkpt>
<trkpt lat="49.03647359513341" lon="7.949155411159338">
<ele>158.63152563476564</ele>
<time>2016-07-30T15:44:16Z</time>
</trkpt>
<trkpt lat="49.036370595133405" lon="7.949815411159338">
<ele>158.37452563476563</ele>
<time>2016-07-30T15:44:28Z</time>
</trkpt>
<trkpt lat="49.03627359513341" lon="7.950575411159337">
<ele>158.11152563476563</ele>
<time>2016-07-30T15:44:42Z</time>
</trkpt>
<trkpt lat="49.03623359513341" lon="7.950920411159338">
<ele>158.01752563476563</ele>
<time>2016-07-30T15:44:48Z</time>
</trkpt>
<trkpt lat="49.03619459513341" lon="7.950918411159337">
<ele>158.00852563476565</ele>
<time>2016-07-30T15:44:49Z</time>
</trkpt>
<trkpt lat="49.03613459513341" lon="7.950942411159337">
<ele>157.93752563476565</ele>
<time>2016-07-30T15:44:50Z</time>
</trkpt>
<trkpt lat="49.03599959513341" lon="7.951922411159337">
<ele>157.35152563476564</ele>
<time>2016-07-30T15:45:03Z</time>
</trkpt>
<trkpt lat="49.03596659513341" lon="7.9520184111593375">
<ele>157.23552563476562</ele>
<time>2016-07-30T15:45:05Z</time>
</trkpt>
<trkpt lat="49.03593459513341" lon="7.952048411159337">
<ele>157.19352563476562</ele>
<time>2016-07-30T15:45:05Z</time>
</trkpt>
<trkpt lat="49.035899595133415" lon="7.952066411159337">
<ele>157.1385256347656</ele>
<time>2016-07-30T15:45:06Z</time>
</trkpt>
<trkpt lat="49.035902595133415" lon="7.952161411159337">
<ele>157.06252563476562</ele>
<time>2016-07-30T15:45:07Z</time>
</trkpt>
<trkpt lat="49.03585859513341" lon="7.952311411159337">
<ele>156.93352563476563</ele>
<time>2016-07-30T15:45:09Z</time>
</trkpt>
<trkpt lat="49.03582459513341" lon="7.952444411159337">
<ele>156.79852563476564</ele>
<time>2016-07-30T15:45:11Z</time>
</trkpt>
<trkpt lat="49.035854595133415" lon="7.952496411159337">
<ele>156.73452563476565</ele>
<time>2016-07-30T15:45:12Z</time>
</trkpt>
<trkpt lat="49.035893595133416" lon="7.952647411159337">
<ele>156.58052563476565</ele>
<time>2016-07-30T15:45:14Z</time>
</trkpt>
<trkpt lat="49.03588359513341" lon="7.952772411159336">
<ele>156.47052563476564</ele>
<time>2016-07-30T15:45:15Z</time>
</trkpt>
<trkpt lat="49.035863595133414" lon="7.952933411159337">
<ele>156.31652563476564</ele>
<time>2016-07-30T15:45:17Z</time>
</trkpt>
<trkpt lat="49.035834595133416" lon="7.953411411159337">
<ele>155.93852563476565</ele>
<time>2016-07-30T15:45:24Z</time>
</trkpt>
<trkpt lat="49.035801595133414" lon="7.954191411159337">
<ele>155.46352563476566</ele>
<time>2016-07-30T15:45:34Z</time>
</trkpt>
<trkpt lat="49.03579159513341" lon="7.954443411159336">
<ele>155.32652563476566</ele>
<time>2016-07-30T15:45:37Z</time>
</trkpt>
<trkpt lat="49.03578559513341" lon="7.9552394111593365">
<ele>155.01952563476567</ele>
<time>2016-07-30T15:45:49Z</time>
</trkpt>
<trkpt lat="49.03586259513341" lon="7.955757411159336">
<ele>154.91952563476568</ele>
<time>2016-07-30T15:45:56Z</time>
</trkpt>
<trkpt lat="49.035973595133406" lon="7.956295411159336">
<ele>154.9275256347657</ele>
<time>2016-07-30T15:46:05Z</time>
</trkpt>
<trkpt lat="49.03576759513341" lon="7.956521411159335">
<ele>154.94952563476568</ele>
<time>2016-07-30T15:46:11Z</time>
</trkpt>
<trkpt lat="49.03574159513341" lon="7.956599411159336">
<ele>154.9995256347657</ele>
<time>2016-07-30T15:46:12Z</time>
</trkpt>
<trkpt lat="49.03567859513341" lon="7.957213411159335">
<ele>155.13452563476568</ele>
<time>2016-07-30T15:46:22Z</time>
</trkpt>
<trkpt lat="49.03563659513341" lon="7.957638411159335">
<ele>155.2325256347657</ele>
<time>2016-07-30T15:46:29Z</time>
</trkpt>
<trkpt lat="49.03559259513341" lon="7.957921411159335">
<ele>155.3265256347657</ele>
<time>2016-07-30T15:46:34Z</time>
</trkpt>
<trkpt lat="49.03552559513341" lon="7.958237411159335">
<ele>155.3645256347657</ele>
<time>2016-07-30T15:46:39Z</time>
</trkpt>
<trkpt lat="49.03528059513341" lon="7.958873411159335">
<ele>155.40352563476569</ele>
<time>2016-07-30T15:46:51Z</time>
</trkpt>
<trkpt lat="49.03517859513341" lon="7.959416411159335">
<ele>155.4345256347657</ele>
<time>2016-07-30T15:47:00Z</time>
</trkpt>
<trkpt lat="49.03512859513341" lon="7.959824411159335">
<ele>155.4935256347657</ele>
<time>2016-07-30T15:47:06Z</time>
</trkpt>
<trkpt lat="49.03512859513341" lon="7.960610411159335">
<ele>155.58052563476568</ele>
<time>2016-07-30T15:47:18Z</time>
</trkpt>
<trkpt lat="49.03513859513341" lon="7.961331411159335">
<ele>155.61552563476567</ele>
<time>2016-07-30T15:47:30Z</time>
</trkpt>
<trkpt lat="49.03511659513341" lon="7.961468411159335">
<ele>155.62652563476567</ele>
<time>2016-07-30T15:47:32Z</time>
</trkpt>
<trkpt lat="49.03506659513341" lon="7.961685411159335">
<ele>155.60752563476566</ele>
<time>2016-07-30T15:47:35Z</time>
</trkpt>
<trkpt lat="49.034991595133405" lon="7.9618534111593355">
<ele>155.53952563476565</ele>
<time>2016-07-30T15:47:38Z</time>
</trkpt>
<trkpt lat="49.034879595133404" lon="7.961995411159336">
<ele>155.53152563476564</ele>
<time>2016-07-30T15:47:41Z</time>
</trkpt>
<trkpt lat="49.034746595133406" lon="7.962155411159336">
<ele>155.44852563476564</ele>
<time>2016-07-30T15:47:45Z</time>
</trkpt>
<trkpt lat="49.03462759513341" lon="7.962320411159336">
<ele>155.42452563476564</ele>
<time>2016-07-30T15:47:49Z</time>
</trkpt>
<trkpt lat="49.03448559513341" lon="7.962633411159336">
<ele>155.31552563476563</ele>
<time>2016-07-30T15:47:54Z</time>
</trkpt>
<trkpt lat="49.03443259513341" lon="7.962992411159337">
<ele>155.24952563476563</ele>
<time>2016-07-30T15:47:59Z</time>
</trkpt>
<trkpt lat="49.03442359513341" lon="7.9633214111593364">
<ele>155.18252563476562</ele>
<time>2016-07-30T15:48:04Z</time>
</trkpt>
<trkpt lat="49.03440659513341" lon="7.963663411159336">
<ele>155.08952563476564</ele>
<time>2016-07-30T15:48:09Z</time>
</trkpt>
<trkpt lat="49.03434859513341" lon="7.964205411159337">
<ele>154.69852563476564</ele>
<time>2016-07-30T15:48:16Z</time>
</trkpt>
<trkpt lat="49.033685595133406" lon="7.965691411159336">
<ele>153.61752563476566</ele>
<time>2016-07-30T15:48:40Z</time>
</trkpt>
<trkpt lat="49.03363459513341" lon="7.9659014111593365">
<ele>153.57252563476567</ele>
<time>2016-07-30T15:48:44Z</time>
</trkpt>
<trkpt lat="49.033598595133405" lon="7.966055411159337">
<ele>153.46952563476566</ele>
<time>2016-07-30T15:48:46Z</time>
</trkpt>
<trkpt lat="49.033103595133404" lon="7.967216411159336">
<ele>153.48652563476566</ele>
<time>2016-07-30T15:49:06Z</time>
</trkpt>
<trkpt lat="49.0331495951334" lon="7.967265411159336">
<ele>153.48652563476566</ele>
<time>2016-07-30T15:49:07Z</time>
</trkpt>
<trkpt lat="49.0334645951334" lon="7.967609411159336">
<ele>153.53952563476565</ele>
<time>2016-07-30T15:49:17Z</time>
</trkpt>
<trkpt lat="49.033508595133405" lon="7.967737411159336">
<ele>153.51852563476567</ele>
<time>2016-07-30T15:49:19Z</time>
</trkpt>
<trkpt lat="49.0335545951334" lon="7.9680684111593365">
<ele>153.63352563476568</ele>
<time>2016-07-30T15:49:24Z</time>
</trkpt>
<trkpt lat="49.0335605951334" lon="7.968129411159336">
<ele>153.65852563476568</ele>
<time>2016-07-30T15:49:25Z</time>
</trkpt>
<trkpt lat="49.0338905951334" lon="7.968431411159336">
<ele>153.83752563476568</ele>
<time>2016-07-30T15:49:35Z</time>
</trkpt>
<trkpt lat="49.0336945951334" lon="7.9688874111593355">
<ele>153.97452563476568</ele>
<time>2016-07-30T15:49:44Z</time>
</trkpt>
<trkpt lat="49.033622595133394" lon="7.969038411159335">
<ele>154.0005256347657</ele>
<time>2016-07-30T15:49:47Z</time>
</trkpt>
<trkpt lat="49.0335705951334" lon="7.969172411159335">
<ele>154.0315256347657</ele>
<time>2016-07-30T15:49:49Z</time>
</trkpt>
<trkpt lat="49.0334745951334" lon="7.9694214111593356">
<ele>154.0805256347657</ele>
<time>2016-07-30T15:49:54Z</time>
</trkpt>
<trkpt lat="49.0334095951334" lon="7.9697324111593355">
<ele>154.0755256347657</ele>
<time>2016-07-30T15:49:59Z</time>
</trkpt>
<trkpt lat="49.0333915951334" lon="7.970534411159336">
<ele>153.9615256347657</ele>
<time>2016-07-30T15:50:11Z</time>
</trkpt>
<trkpt lat="49.0334025951334" lon="7.970830411159335">
<ele>153.85052563476572</ele>
<time>2016-07-30T15:50:15Z</time>
</trkpt>
<trkpt lat="49.033350595133406" lon="7.970954411159335">
<ele>153.79952563476573</ele>
<time>2016-07-30T15:50:17Z</time>
</trkpt>
<trkpt lat="49.03331359513341" lon="7.971086411159335">
<ele>153.78552563476572</ele>
<time>2016-07-30T15:50:19Z</time>
</trkpt>
<trkpt lat="49.03317759513341" lon="7.971573411159334">
<ele>153.7605256347657</ele>
<time>2016-07-30T15:50:27Z</time>
</trkpt>
<trkpt lat="49.03314759513341" lon="7.971622411159334">
<ele>153.7545256347657</ele>
<time>2016-07-30T15:50:28Z</time>
</trkpt>
<trkpt lat="49.03319159513341" lon="7.971667411159334">
<ele>153.7655256347657</ele>
<time>2016-07-30T15:50:29Z</time>
</trkpt>
<trkpt lat="49.03351459513341" lon="7.972008411159334">
<ele>153.7405256347657</ele>
<time>2016-07-30T15:50:38Z</time>
</trkpt>
<trkpt lat="49.03371359513341" lon="7.972243411159334">
<ele>153.9505256347657</ele>
<time>2016-07-30T15:50:44Z</time>
</trkpt>
<trkpt lat="49.03385159513341" lon="7.972576411159334">
<ele>154.0795256347657</ele>
<time>2016-07-30T15:50:51Z</time>
</trkpt>
<trkpt lat="49.03388059513341" lon="7.972642411159335">
<ele>154.1675256347657</ele>
<time>2016-07-30T15:50:52Z</time>
</trkpt>
<trkpt lat="49.03394159513341" lon="7.972786411159334">
<ele>154.33752563476568</ele>
<time>2016-07-30T15:50:55Z</time>
</trkpt>
<trkpt lat="49.03418659513341" lon="7.973469411159335">
<ele>154.81952563476568</ele>
<time>2016-07-30T15:51:09Z</time>
</trkpt>
<trkpt lat="49.034306595133415" lon="7.973955411159335">
<ele>155.48952563476567</ele>
<time>2016-07-30T15:51:19Z</time>
</trkpt>
<trkpt lat="49.034354595133415" lon="7.974038411159335">
<ele>155.65652563476567</ele>
<time>2016-07-30T15:51:21Z</time>
</trkpt>
<trkpt lat="49.03444259513341" lon="7.974139411159335">
<ele>156.07852563476567</ele>
<time>2016-07-30T15:51:25Z</time>
</trkpt>
<trkpt lat="49.035311595133415" lon="7.974964411159335">
<ele>158.89252563476566</ele>
<time>2016-07-30T15:51:59Z</time>
</trkpt>
<trkpt lat="49.03569859513342" lon="7.975303411159335">
<ele>160.25352563476565</ele>
<time>2016-07-30T15:52:15Z</time>
</trkpt>
<trkpt lat="49.03640159513342" lon="7.975923411159335">
<ele>162.12452563476566</ele>
<time>2016-07-30T15:52:40Z</time>
</trkpt>
<trkpt lat="49.03675859513342" lon="7.976156411159335">
<ele>162.77152563476565</ele>
<time>2016-07-30T15:52:51Z</time>
</trkpt>
<trkpt lat="49.03699959513342" lon="7.976247411159335">
<ele>162.99752563476565</ele>
<time>2016-07-30T15:52:58Z</time>
</trkpt>
<trkpt lat="49.03721759513342" lon="7.976355411159335">
<ele>163.07852563476564</ele>
<time>2016-07-30T15:53:03Z</time>
</trkpt>
<trkpt lat="49.03732659513342" lon="7.976444411159335">
<ele>163.05852563476563</ele>
<time>2016-07-30T15:53:06Z</time>
</trkpt>
<trkpt lat="49.03736959513342" lon="7.976498411159335">
<ele>163.06652563476564</ele>
<time>2016-07-30T15:53:07Z</time>
</trkpt>
<trkpt lat="49.03749359513342" lon="7.976651411159335">
<ele>163.04952563476564</ele>
<time>2016-07-30T15:53:11Z</time>
</trkpt>
<trkpt lat="49.03768859513342" lon="7.9769124111593355">
<ele>162.93952563476563</ele>
<time>2016-07-30T15:53:16Z</time>
</trkpt>
<trkpt lat="49.03776059513342" lon="7.976937411159335">
<ele>162.90052563476564</ele>
<time>2016-07-30T15:53:18Z</time>
</trkpt>
<trkpt lat="49.03777359513342" lon="7.977099411159336">
<ele>162.83152563476565</ele>
<time>2016-07-30T15:53:20Z</time>
</trkpt>
<trkpt lat="49.037823595133425" lon="7.977971411159336">
<ele>162.28052563476567</ele>
<time>2016-07-30T15:53:31Z</time>
</trkpt>
<trkpt lat="49.03780559513343" lon="7.9786544111593365">
<ele>161.61652563476568</ele>
<time>2016-07-30T15:53:39Z</time>
</trkpt>
<trkpt lat="49.037550595133425" lon="7.9800014111593365">
<ele>159.96052563476567</ele>
<time>2016-07-30T15:53:56Z</time>
</trkpt>
<trkpt lat="49.037474595133425" lon="7.980679411159336">
<ele>159.31352563476568</ele>
<time>2016-07-30T15:54:04Z</time>
</trkpt>
<trkpt lat="49.037468595133426" lon="7.980906411159336">
<ele>159.08452563476567</ele>
<time>2016-07-30T15:54:07Z</time>
</trkpt>
<trkpt lat="49.037479595133426" lon="7.982430411159336">
<ele>158.14552563476568</ele>
<time>2016-07-30T15:54:26Z</time>
</trkpt>
<trkpt lat="49.03749859513343" lon="7.983174411159336">
<ele>157.69052563476566</ele>
<time>2016-07-30T15:54:36Z</time>
</trkpt>
<trkpt lat="49.03750659513343" lon="7.9833244111593356">
<ele>157.64052563476565</ele>
<time>2016-07-30T15:54:38Z</time>
</trkpt>
<trkpt lat="49.03754659513343" lon="7.983610411159336">
<ele>157.44252563476564</ele>
<time>2016-07-30T15:54:42Z</time>
</trkpt>
<trkpt lat="49.03769259513343" lon="7.984338411159335">
<ele>157.03652563476564</ele>
<time>2016-07-30T15:54:51Z</time>
</trkpt>
<trkpt lat="49.03802259513343" lon="7.9858844111593354">
<ele>156.26452563476565</ele>
<time>2016-07-30T15:55:13Z</time>
</trkpt>
<trkpt lat="49.03815059513342" lon="7.986457411159336">
<ele>155.93252563476565</ele>
<time>2016-07-30T15:55:21Z</time>
</trkpt>
<trkpt lat="49.038296595133424" lon="7.987112411159336">
<ele>155.58852563476566</ele>
<time>2016-07-30T15:55:30Z</time>
</trkpt>
<trkpt lat="49.03858459513342" lon="7.988269411159336">
<ele>155.56452563476566</ele>
<time>2016-07-30T15:55:48Z</time>
</trkpt>
<trkpt lat="49.03863459513342" lon="7.988459411159336">
<ele>155.61852563476566</ele>
<time>2016-07-30T15:55:51Z</time>
</trkpt>
<trkpt lat="49.03869959513342" lon="7.988749411159335">
<ele>155.72452563476566</ele>
<time>2016-07-30T15:55:56Z</time>
</trkpt>
<trkpt lat="49.03872859513342" lon="7.988951411159335">
<ele>155.80752563476565</ele>
<time>2016-07-30T15:55:59Z</time>
</trkpt>
<trkpt lat="49.03886759513342" lon="7.989334411159335">
<ele>156.03152563476564</ele>
<time>2016-07-30T15:56:06Z</time>
</trkpt>
<trkpt lat="49.039014595133416" lon="7.989790411159335">
<ele>156.52052563476565</ele>
<time>2016-07-30T15:56:16Z</time>
</trkpt>
<trkpt lat="49.039394595133416" lon="7.990763411159335">
<ele>157.27952563476563</ele>
<time>2016-07-30T15:56:35Z</time>
</trkpt>
<trkpt lat="49.039560595133416" lon="7.991668411159336">
<ele>157.63052563476563</ele>
<time>2016-07-30T15:56:50Z</time>
</trkpt>
<trkpt lat="49.039563595133416" lon="7.991767411159335">
<ele>157.82252563476564</ele>
<time>2016-07-30T15:56:53Z</time>
</trkpt>
<trkpt lat="49.03955159513342" lon="7.991904411159335">
<ele>157.79252563476564</ele>
<time>2016-07-30T15:56:55Z</time>
</trkpt>
<trkpt lat="49.03944059513342" lon="7.992647411159335">
<ele>157.81352563476563</ele>
<time>2016-07-30T15:57:06Z</time>
</trkpt>
<trkpt lat="49.03942459513342" lon="7.9927844111593345">
<ele>157.79652563476563</ele>
<time>2016-07-30T15:57:08Z</time>
</trkpt>
<trkpt lat="49.03942959513342" lon="7.9932234111593345">
<ele>157.74652563476562</ele>
<time>2016-07-30T15:57:14Z</time>
</trkpt>
<trkpt lat="49.03950059513342" lon="7.994165411159335">
<ele>157.54052563476563</ele>
<time>2016-07-30T15:57:27Z</time>
</trkpt>
<trkpt lat="49.03951759513342" lon="7.994395411159335">
<ele>157.31252563476562</ele>
<time>2016-07-30T15:57:30Z</time>
</trkpt>
<trkpt lat="49.03960959513342" lon="7.995594411159335">
<ele>156.65952563476563</ele>
<time>2016-07-30T15:57:46Z</time>
</trkpt>
<trkpt lat="49.03964459513342" lon="7.9958604111593345">
<ele>156.54652563476563</ele>
<time>2016-07-30T15:57:49Z</time>
</trkpt>
<trkpt lat="49.03968659513342" lon="7.996106411159334">
<ele>156.40452563476563</ele>
<time>2016-07-30T15:57:52Z</time>
</trkpt>
<trkpt lat="49.04019459513342" lon="7.9985734111593345">
<ele>155.30452563476564</ele>
<time>2016-07-30T15:58:27Z</time>
</trkpt>
<trkpt lat="49.04033459513342" lon="7.999211411159335">
<ele>155.00052563476564</ele>
<time>2016-07-30T15:58:36Z</time>
</trkpt>
<trkpt lat="49.04045359513342" lon="7.999594411159335">
<ele>154.78152563476564</ele>
<time>2016-07-30T15:58:41Z</time>
</trkpt>
<trkpt lat="49.04048559513342" lon="7.999708411159335">
<ele>154.69652563476564</ele>
<time>2016-07-30T15:58:43Z</time>
</trkpt>
<trkpt lat="49.04082659513342" lon="8.000693411159334">
<ele>153.96752563476562</ele>
<time>2016-07-30T15:58:57Z</time>
</trkpt>
<trkpt lat="49.041159595133415" lon="8.001630411159335">
<ele>153.3935256347656</ele>
<time>2016-07-30T15:59:11Z</time>
</trkpt>
<trkpt lat="49.041145595133415" lon="8.001741411159335">
<ele>153.25252563476562</ele>
<time>2016-07-30T15:59:12Z</time>
</trkpt>
<trkpt lat="49.041289595133414" lon="8.002165411159336">
<ele>153.1145256347656</ele>
<time>2016-07-30T15:59:18Z</time>
</trkpt>
<trkpt lat="49.04129859513341" lon="8.002214411159336">
<ele>153.02152563476562</ele>
<time>2016-07-30T15:59:19Z</time>
</trkpt>
<trkpt lat="49.04139759513341" lon="8.002914411159336">
<ele>152.69352563476562</ele>
<time>2016-07-30T15:59:28Z</time>
</trkpt>
<trkpt lat="49.04148159513341" lon="8.003152411159336">
<ele>152.6085256347656</ele>
<time>2016-07-30T15:59:32Z</time>
</trkpt>
<trkpt lat="49.041595595133415" lon="8.003341411159337">
<ele>152.41352563476562</ele>
<time>2016-07-30T15:59:35Z</time>
</trkpt>
<trkpt lat="49.041702595133415" lon="8.003536411159336">
<ele>152.34452563476563</ele>
<time>2016-07-30T15:59:39Z</time>
</trkpt>
<trkpt lat="49.041778595133415" lon="8.003838411159336">
<ele>152.14552563476562</ele>
<time>2016-07-30T15:59:43Z</time>
</trkpt>
<trkpt lat="49.04196559513341" lon="8.004608411159335">
<ele>151.8995256347656</ele>
<time>2016-07-30T15:59:54Z</time>
</trkpt>
<trkpt lat="49.04234059513341" lon="8.006180411159335">
<ele>151.2795256347656</ele>
<time>2016-07-30T16:00:16Z</time>
</trkpt>
<trkpt lat="49.04295259513341" lon="8.008316411159335">
<ele>150.4385256347656</ele>
<time>2016-07-30T16:00:48Z</time>
</trkpt>
<trkpt lat="49.042961595133406" lon="8.008379411159336">
<ele>150.3915256347656</ele>
<time>2016-07-30T16:00:48Z</time>
</trkpt>
<trkpt lat="49.042998595133405" lon="8.008551411159335">
<ele>150.4175256347656</ele>
<time>2016-07-30T16:00:51Z</time>
</trkpt>
<trkpt lat="49.043108595133404" lon="8.008780411159334">
<ele>150.3935256347656</ele>
<time>2016-07-30T16:00:55Z</time>
</trkpt>
<trkpt lat="49.043645595133405" lon="8.010511411159333">
<ele>150.58552563476562</ele>
<time>2016-07-30T16:01:24Z</time>
</trkpt>
<trkpt lat="49.043929595133406" lon="8.011282411159334">
<ele>150.80252563476563</ele>
<time>2016-07-30T16:01:38Z</time>
</trkpt>
<trkpt lat="49.044917595133406" lon="8.014341411159334">
<ele>151.05152563476562</ele>
<time>2016-07-30T16:02:29Z</time>
</trkpt>
<trkpt lat="49.044976595133406" lon="8.014468411159335">
<ele>150.93952563476563</ele>
<time>2016-07-30T16:02:31Z</time>
</trkpt>
<trkpt lat="49.0450085951334" lon="8.014552411159334">
<ele>150.89252563476563</ele>
<time>2016-07-30T16:02:32Z</time>
</trkpt>
<trkpt lat="49.0450685951334" lon="8.014710411159335">
<ele>150.82252563476564</ele>
<time>2016-07-30T16:02:34Z</time>
</trkpt>
<trkpt lat="49.0451085951334" lon="8.014803411159335">
<ele>150.73052563476563</ele>
<time>2016-07-30T16:02:36Z</time>
</trkpt>
<trkpt lat="49.044386595133396" lon="8.015686411159335">
<ele>149.72852563476562</ele>
<time>2016-07-30T16:02:53Z</time>
</trkpt>
<trkpt lat="49.044342595133394" lon="8.015840411159335">
<ele>149.6375256347656</ele>
<time>2016-07-30T16:02:55Z</time>
</trkpt>
<trkpt lat="49.04430959513339" lon="8.016005411159336">
<ele>149.4205256347656</ele>
<time>2016-07-30T16:02:58Z</time>
</trkpt>
<trkpt lat="49.044257595133395" lon="8.017025411159336">
<ele>148.5575256347656</ele>
<time>2016-07-30T16:03:10Z</time>
</trkpt>
<trkpt lat="49.044167595133395" lon="8.017989411159336">
<ele>148.0825256347656</ele>
<time>2016-07-30T16:03:23Z</time>
</trkpt>
<trkpt lat="49.04417459513339" lon="8.018371411159336">
<ele>147.9415256347656</ele>
<time>2016-07-30T16:03:28Z</time>
</trkpt>
<trkpt lat="49.04423159513339" lon="8.018680411159336">
<ele>147.93152563476562</ele>
<time>2016-07-30T16:03:33Z</time>
</trkpt>
<trkpt lat="49.04446059513339" lon="8.019258411159337">
<ele>148.02352563476563</ele>
<time>2016-07-30T16:03:43Z</time>
</trkpt>
<trkpt lat="49.04448559513339" lon="8.019320411159336">
<ele>148.04252563476564</ele>
<time>2016-07-30T16:03:44Z</time>
</trkpt>
<trkpt lat="49.04464759513339" lon="8.019715411159336">
<ele>148.11952563476564</ele>
<time>2016-07-30T16:03:51Z</time>
</trkpt>
<trkpt lat="49.04503159513339" lon="8.020506411159335">
<ele>148.26652563476563</ele>
<time>2016-07-30T16:04:06Z</time>
</trkpt>
<trkpt lat="49.045356595133384" lon="8.021257411159334">
<ele>148.46252563476563</ele>
<time>2016-07-30T16:04:20Z</time>
</trkpt>
<trkpt lat="49.045502595133385" lon="8.021641411159335">
<ele>148.50052563476564</ele>
<time>2016-07-30T16:04:27Z</time>
</trkpt>
<trkpt lat="49.04561659513339" lon="8.021994411159335">
<ele>148.50152563476564</ele>
<time>2016-07-30T16:04:32Z</time>
</trkpt>
<trkpt lat="49.045752595133386" lon="8.022376411159335">
<ele>148.50652563476564</ele>
<time>2016-07-30T16:04:39Z</time>
</trkpt>
<trkpt lat="49.045961595133384" lon="8.022877411159335">
<ele>148.42252563476563</ele>
<time>2016-07-30T16:04:47Z</time>
</trkpt>
<trkpt lat="49.046003595133385" lon="8.022974411159336">
<ele>148.38852563476564</ele>
<time>2016-07-30T16:04:49Z</time>
</trkpt>
<trkpt lat="49.04604359513338" lon="8.023005411159335">
<ele>148.39452563476564</ele>
<time>2016-07-30T16:04:50Z</time>
</trkpt>
<trkpt lat="49.04612359513338" lon="8.023013411159335">
<ele>148.37052563476564</ele>
<time>2016-07-30T16:04:51Z</time>
</trkpt>
<trkpt lat="49.04616659513338" lon="8.022990411159334">
<ele>148.37152563476565</ele>
<time>2016-07-30T16:04:52Z</time>
</trkpt>
<trkpt lat="49.04625659513338" lon="8.023158411159335">
<ele>148.28952563476565</ele>
<time>2016-07-30T16:04:55Z</time>
</trkpt>
<trkpt lat="49.04644159513338" lon="8.023900411159335">
<ele>148.14952563476567</ele>
<time>2016-07-30T16:05:06Z</time>
</trkpt>
<trkpt lat="49.04663659513338" lon="8.025018411159335">
<ele>147.87452563476566</ele>
<time>2016-07-30T16:05:22Z</time>
</trkpt>
<trkpt lat="49.04676059513338" lon="8.026050411159336">
<ele>147.60852563476567</ele>
<time>2016-07-30T16:05:37Z</time>
</trkpt>
<trkpt lat="49.04685259513338" lon="8.026750411159336">
<ele>147.57952563476567</ele>
<time>2016-07-30T16:05:47Z</time>
</trkpt>
<trkpt lat="49.04701659513338" lon="8.027414411159336">
<ele>147.64852563476566</ele>
<time>2016-07-30T16:05:58Z</time>
</trkpt>
<trkpt lat="49.04712059513338" lon="8.027720411159336">
<ele>147.73552563476565</ele>
<time>2016-07-30T16:06:03Z</time>
</trkpt>
<trkpt lat="49.04743859513338" lon="8.028437411159336">
<ele>147.82252563476564</ele>
<time>2016-07-30T16:06:16Z</time>
</trkpt>
<trkpt lat="49.04750959513338" lon="8.028607411159337">
<ele>147.89552563476565</ele>
<time>2016-07-30T16:06:19Z</time>
</trkpt>
<trkpt lat="49.047558595133374" lon="8.028752411159337">
<ele>147.91152563476564</ele>
<time>2016-07-30T16:06:22Z</time>
</trkpt>
<trkpt lat="49.047656595133375" lon="8.029302411159337">
<ele>148.02552563476564</ele>
<time>2016-07-30T16:06:31Z</time>
</trkpt>
<trkpt lat="49.04768559513337" lon="8.030038411159337">
<ele>148.18152563476565</ele>
<time>2016-07-30T16:06:42Z</time>
</trkpt>
<trkpt lat="49.047696595133374" lon="8.030144411159338">
<ele>148.22652563476564</ele>
<time>2016-07-30T16:06:44Z</time>
</trkpt>
<trkpt lat="49.04770959513338" lon="8.030264411159338">
<ele>148.24152563476562</ele>
<time>2016-07-30T16:06:46Z</time>
</trkpt>
<trkpt lat="49.04783859513338" lon="8.031264411159338">
<ele>148.28852563476562</ele>
<time>2016-07-30T16:07:01Z</time>
</trkpt>
<trkpt lat="49.048070595133375" lon="8.032405411159338">
<ele>148.11752563476563</ele>
<time>2016-07-30T16:07:18Z</time>
</trkpt>
<trkpt lat="49.048301595133374" lon="8.033103411159338">
<ele>147.97052563476564</ele>
<time>2016-07-30T16:07:28Z</time>
</trkpt>
<trkpt lat="49.048433595133375" lon="8.033466411159338">
<ele>147.89752563476563</ele>
<time>2016-07-30T16:07:34Z</time>
</trkpt>
<trkpt lat="49.048971595133374" lon="8.034817411159338">
<ele>146.84552563476564</ele>
<time>2016-07-30T16:07:54Z</time>
</trkpt>
<trkpt lat="49.04917759513337" lon="8.035593411159338">
<ele>146.03552563476563</ele>
<time>2016-07-30T16:08:04Z</time>
</trkpt>
<trkpt lat="49.04917759513337" lon="8.035593411159338">
<ele>146.00752563476564</ele>
<time>2016-07-30T16:08:04Z</time>
</trkpt>
<trkpt lat="49.04886259513337" lon="8.035799411159338">
<ele>145.42452563476564</ele>
<time>2016-07-30T16:08:11Z</time>
</trkpt>
<trkpt lat="49.048318595133374" lon="8.036069411159339">
<ele>144.30252563476563</ele>
<time>2016-07-30T16:08:21Z</time>
</trkpt>
<trkpt lat="49.048267595133375" lon="8.036086411159339">
<ele>144.21252563476563</ele>
<time>2016-07-30T16:08:22Z</time>
</trkpt>
<trkpt lat="49.047828595133375" lon="8.036184411159338">
<ele>143.31752563476562</ele>
<time>2016-07-30T16:08:29Z</time>
</trkpt>
<trkpt lat="49.047614595133375" lon="8.036285411159339">
<ele>142.80252563476563</ele>
<time>2016-07-30T16:08:33Z</time>
</trkpt>
<trkpt lat="49.04741259513337" lon="8.036395411159338">
<ele>142.43052563476562</ele>
<time>2016-07-30T16:08:37Z</time>
</trkpt>
<trkpt lat="49.046874595133374" lon="8.036773411159338">
<ele>141.57552563476563</ele>
<time>2016-07-30T16:08:48Z</time>
</trkpt>
<trkpt lat="49.04666259513338" lon="8.036929411159338">
<ele>141.28752563476561</ele>
<time>2016-07-30T16:08:52Z</time>
</trkpt>
<trkpt lat="49.045917595133375" lon="8.037727411159338">
<ele>140.37852563476562</ele>
<time>2016-07-30T16:09:10Z</time>
</trkpt>
<trkpt lat="49.04561459513337" lon="8.038042411159338">
<ele>140.04352563476561</ele>
<time>2016-07-30T16:09:17Z</time>
</trkpt>
<trkpt lat="49.04513159513337" lon="8.038465411159338">
<ele>139.5175256347656</ele>
<time>2016-07-30T16:09:28Z</time>
</trkpt>
<trkpt lat="49.04472059513337" lon="8.038738411159338">
<ele>139.13352563476562</ele>
<time>2016-07-30T16:09:37Z</time>
</trkpt>
<trkpt lat="49.04469659513337" lon="8.038755411159338">
<ele>139.12152563476562</ele>
<time>2016-07-30T16:09:37Z</time>
</trkpt>
<trkpt lat="49.044652595133364" lon="8.038786411159338">
<ele>139.08652563476562</ele>
<time>2016-07-30T16:09:38Z</time>
</trkpt>
<trkpt lat="49.04461959513336" lon="8.038810411159337">
<ele>139.04952563476562</ele>
<time>2016-07-30T16:09:39Z</time>
</trkpt>
<trkpt lat="49.04448959513336" lon="8.038879411159337">
<ele>138.9395256347656</ele>
<time>2016-07-30T16:09:42Z</time>
</trkpt>
<trkpt lat="49.044415595133366" lon="8.038905411159337">
<ele>138.8775256347656</ele>
<time>2016-07-30T16:09:43Z</time>
</trkpt>
<trkpt lat="49.04435559513337" lon="8.038893411159338">
<ele>138.83952563476558</ele>
<time>2016-07-30T16:09:44Z</time>
</trkpt>
<trkpt lat="49.044705595133365" lon="8.039808411159338">
<ele>138.3895256347656</ele>
<time>2016-07-30T16:09:58Z</time>
</trkpt>
<trkpt lat="49.04474859513336" lon="8.039911411159338">
<ele>138.3595256347656</ele>
<time>2016-07-30T16:10:00Z</time>
</trkpt>
<trkpt lat="49.046014595133364" lon="8.042993411159337">
<ele>137.9255256347656</ele>
<time>2016-07-30T16:10:52Z</time>
</trkpt>
<trkpt lat="49.04613159513337" lon="8.043052411159337">
<ele>137.9195256347656</ele>
<time>2016-07-30T16:10:54Z</time>
</trkpt>
<trkpt lat="49.04607459513337" lon="8.043118411159337">
<ele>137.9185256347656</ele>
<time>2016-07-30T16:10:56Z</time>
</trkpt>
<trkpt lat="49.04792159513337" lon="8.047709411159337">
<ele>137.8545256347656</ele>
<time>2016-07-30T16:12:18Z</time>
</trkpt>
<trkpt lat="49.049214595133364" lon="8.050920411159337">
<ele>137.2365256347656</ele>
<time>2016-07-30T16:13:13Z</time>
</trkpt>
<trkpt lat="49.04950559513336" lon="8.051664411159337">
<ele>137.1575256347656</ele>
<time>2016-07-30T16:13:26Z</time>
</trkpt>
<trkpt lat="49.051139595133364" lon="8.055596411159337">
<ele>138.0345256347656</ele>
<time>2016-07-30T16:14:40Z</time>
</trkpt>
<trkpt lat="49.05146959513336" lon="8.056209411159337">
<ele>138.4705256347656</ele>
<time>2016-07-30T16:14:54Z</time>
</trkpt>
<trkpt lat="49.05217559513336" lon="8.058032411159337">
<ele>140.06852563476562</ele>
<time>2016-07-30T16:15:33Z</time>
</trkpt>
<trkpt lat="49.05279859513336" lon="8.059588411159337">
<ele>141.57552563476563</ele>
<time>2016-07-30T16:16:06Z</time>
</trkpt>
<trkpt lat="49.05359959513336" lon="8.061541411159338">
<ele>143.22552563476563</ele>
<time>2016-07-30T16:16:48Z</time>
</trkpt>
<trkpt lat="49.05407059513336" lon="8.062646411159339">
<ele>143.57552563476563</ele>
<time>2016-07-30T16:17:09Z</time>
</trkpt>
<trkpt lat="49.05428459513336" lon="8.063318411159338">
<ele>143.6145256347656</ele>
<time>2016-07-30T16:17:21Z</time>
</trkpt>
<trkpt lat="49.05434559513336" lon="8.063518411159338">
<ele>143.5175256347656</ele>
<time>2016-07-30T16:17:24Z</time>
</trkpt>
<trkpt lat="49.05448759513336" lon="8.063987411159339">
<ele>143.4075256347656</ele>
<time>2016-07-30T16:17:32Z</time>
</trkpt>
<trkpt lat="49.05517859513336" lon="8.065653411159339">
<ele>142.49452563476558</ele>
<time>2016-07-30T16:17:59Z</time>
</trkpt>
<trkpt lat="49.05616459513336" lon="8.068063411159338">
<ele>141.6875256347656</ele>
<time>2016-07-30T16:18:39Z</time>
</trkpt>
<trkpt lat="49.05657559513336" lon="8.069062411159338">
<ele>141.4565256347656</ele>
<time>2016-07-30T16:18:56Z</time>
</trkpt>
<trkpt lat="49.05701659513336" lon="8.070076411159338">
<ele>140.5825256347656</ele>
<time>2016-07-30T16:19:12Z</time>
</trkpt>
<trkpt lat="49.05702859513336" lon="8.070100411159338">
<ele>140.5805256347656</ele>
<time>2016-07-30T16:19:13Z</time>
</trkpt>
<trkpt lat="49.05705159513336" lon="8.070152411159338">
<ele>140.5815256347656</ele>
<time>2016-07-30T16:19:13Z</time>
</trkpt>
<trkpt lat="49.057072595133356" lon="8.070171411159338">
<ele>140.5445256347656</ele>
<time>2016-07-30T16:19:14Z</time>
</trkpt>
<trkpt lat="49.057120595133355" lon="8.070192411159338">
<ele>140.4575256347656</ele>
<time>2016-07-30T16:19:15Z</time>
</trkpt>
<trkpt lat="49.057067595133354" lon="8.070490411159339">
<ele>140.3585256347656</ele>
<time>2016-07-30T16:19:19Z</time>
</trkpt>
<trkpt lat="49.05701459513335" lon="8.07080041115934">
<ele>140.20652563476563</ele>
<time>2016-07-30T16:19:23Z</time>
</trkpt>
<trkpt lat="49.056965595133356" lon="8.07114941115934">
<ele>140.28952563476562</ele>
<time>2016-07-30T16:19:29Z</time>
</trkpt>
<trkpt lat="49.056951595133356" lon="8.07129841115934">
<ele>140.14352563476564</ele>
<time>2016-07-30T16:19:31Z</time>
</trkpt>
<trkpt lat="49.056949595133354" lon="8.07142741115934">
<ele>140.07652563476563</ele>
<time>2016-07-30T16:19:32Z</time>
</trkpt>
<trkpt lat="49.05699859513335" lon="8.071739411159339">
<ele>140.17652563476562</ele>
<time>2016-07-30T16:19:37Z</time>
</trkpt>
<trkpt lat="49.05706359513335" lon="8.071972411159338">
<ele>140.01152563476563</ele>
<time>2016-07-30T16:19:41Z</time>
</trkpt>
<trkpt lat="49.05762259513335" lon="8.071751411159338">
<ele>140.04452563476562</ele>
<time>2016-07-30T16:19:54Z</time>
</trkpt>
<trkpt lat="49.057736595133356" lon="8.071732411159338">
<ele>139.96652563476562</ele>
<time>2016-07-30T16:19:56Z</time>
</trkpt>
<trkpt lat="49.057815595133356" lon="8.071817411159339">
<ele>140.0965256347656</ele>
<time>2016-07-30T16:19:59Z</time>
</trkpt>
<trkpt lat="49.058567595133354" lon="8.073669411159338">
<ele>141.4475256347656</ele>
<time>2016-07-30T16:20:36Z</time>
</trkpt>
<trkpt lat="49.058916595133354" lon="8.075593411159339">
<ele>141.42652563476562</ele>
<time>2016-07-30T16:21:05Z</time>
</trkpt>
<trkpt lat="49.058986595133355" lon="8.07627441115934">
<ele>141.26752563476563</ele>
<time>2016-07-30T16:21:14Z</time>
</trkpt>
<trkpt lat="49.05908859513335" lon="8.07750841115934">
<ele>141.00752563476564</ele>
<time>2016-07-30T16:21:32Z</time>
</trkpt>
<trkpt lat="49.05920759513335" lon="8.078152411159339">
<ele>140.91952563476565</ele>
<time>2016-07-30T16:21:41Z</time>
</trkpt>
<trkpt lat="49.059321595133355" lon="8.078535411159338">
<ele>140.93752563476565</ele>
<time>2016-07-30T16:21:47Z</time>
</trkpt>
<trkpt lat="49.05983859513336" lon="8.079784411159338">
<ele>141.09752563476565</ele>
<time>2016-07-30T16:22:10Z</time>
</trkpt>
<trkpt lat="49.06016759513336" lon="8.080581411159338">
<ele>141.11852563476563</ele>
<time>2016-07-30T16:22:23Z</time>
</trkpt>
<trkpt lat="49.06021559513336" lon="8.080563411159337">
<ele>141.13952563476562</ele>
<time>2016-07-30T16:22:25Z</time>
</trkpt>
<trkpt lat="49.06033059513336" lon="8.081222411159338">
<ele>141.12952563476563</ele>
<time>2016-07-30T16:22:35Z</time>
</trkpt>
<trkpt lat="49.060432595133356" lon="8.081887411159338">
<ele>141.11252563476563</ele>
<time>2016-07-30T16:22:44Z</time>
</trkpt>
<trkpt lat="49.06059759513336" lon="8.083225411159338">
<ele>140.93952563476563</ele>
<time>2016-07-30T16:23:04Z</time>
</trkpt>
<trkpt lat="49.06060959513336" lon="8.083318411159338">
<ele>140.93552563476564</ele>
<time>2016-07-30T16:23:05Z</time>
</trkpt>
<trkpt lat="49.06073359513336" lon="8.084291411159338">
<ele>140.85752563476564</ele>
<time>2016-07-30T16:23:19Z</time>
</trkpt>
<trkpt lat="49.06107059513336" lon="8.086089411159339">
<ele>141.02552563476564</ele>
<time>2016-07-30T16:23:47Z</time>
</trkpt>
<trkpt lat="49.06125859513336" lon="8.087364411159339">
<ele>141.16852563476564</ele>
<time>2016-07-30T16:24:07Z</time>
</trkpt>
<trkpt lat="49.06133659513336" lon="8.087794411159338">
<ele>141.18652563476564</ele>
<time>2016-07-30T16:24:13Z</time>
</trkpt>
<trkpt lat="49.06135659513336" lon="8.088251411159339">
<ele>141.19752563476564</ele>
<time>2016-07-30T16:24:20Z</time>
</trkpt>
<trkpt lat="49.06137159513336" lon="8.09004941115934">
<ele>140.97852563476565</ele>
<time>2016-07-30T16:24:46Z</time>
</trkpt>
<trkpt lat="49.06153259513336" lon="8.09117441115934">
<ele>140.84252563476565</ele>
<time>2016-07-30T16:25:02Z</time>
</trkpt>
<trkpt lat="49.06166359513336" lon="8.09185941115934">
<ele>140.62652563476564</ele>
<time>2016-07-30T16:25:12Z</time>
</trkpt>
<trkpt lat="49.06185859513336" lon="8.092995411159341">
<ele>140.08152563476565</ele>
<time>2016-07-30T16:25:27Z</time>
</trkpt>
<trkpt lat="49.06208359513336" lon="8.094283411159342">
<ele>139.17852563476566</ele>
<time>2016-07-30T16:25:44Z</time>
</trkpt>
<trkpt lat="49.06248259513336" lon="8.095907411159342">
<ele>136.73252563476566</ele>
<time>2016-07-30T16:26:04Z</time>
</trkpt>
<trkpt lat="49.06253959513336" lon="8.096157411159341">
<ele>136.31152563476567</ele>
<time>2016-07-30T16:26:07Z</time>
</trkpt>
<trkpt lat="49.06263259513336" lon="8.096548411159342">
<ele>135.69152563476567</ele>
<time>2016-07-30T16:26:11Z</time>
</trkpt>
<trkpt lat="49.06260059513336" lon="8.096692411159342">
<ele>135.48552563476568</ele>
<time>2016-07-30T16:26:13Z</time>
</trkpt>
<trkpt lat="49.06253559513336" lon="8.096731411159341">
<ele>135.3145256347657</ele>
<time>2016-07-30T16:26:14Z</time>
</trkpt>
<trkpt lat="49.062196595133365" lon="8.09675141115934">
<ele>134.6375256347657</ele>
<time>2016-07-30T16:26:20Z</time>
</trkpt>
<trkpt lat="49.061780595133364" lon="8.09679141115934">
<ele>133.8945256347657</ele>
<time>2016-07-30T16:26:28Z</time>
</trkpt>
<trkpt lat="49.06188859513336" lon="8.09719541115934">
<ele>133.5155256347657</ele>
<time>2016-07-30T16:26:33Z</time>
</trkpt>
<trkpt lat="49.06207759513336" lon="8.097989411159341">
<ele>133.0735256347657</ele>
<time>2016-07-30T16:26:44Z</time>
</trkpt>
<trkpt lat="49.06223259513336" lon="8.098787411159341">
<ele>133.1665256347657</ele>
<time>2016-07-30T16:26:57Z</time>
</trkpt>
<trkpt lat="49.06234759513336" lon="8.099366411159341">
<ele>133.5715256347657</ele>
<time>2016-07-30T16:27:07Z</time>
</trkpt>
<trkpt lat="49.06243659513336" lon="8.09974441115934">
<ele>133.7905256347657</ele>
<time>2016-07-30T16:27:14Z</time>
</trkpt>
<trkpt lat="49.062967595133365" lon="8.10156341115934">
<ele>133.9065256347657</ele>
<time>2016-07-30T16:27:43Z</time>
</trkpt>
<trkpt lat="49.063173595133364" lon="8.10236841115934">
<ele>133.4135256347657</ele>
<time>2016-07-30T16:27:55Z</time>
</trkpt>
<trkpt lat="49.06347059513337" lon="8.10352241115934">
<ele>132.4245256347657</ele>
<time>2016-07-30T16:28:10Z</time>
</trkpt>
<trkpt lat="49.06352659513337" lon="8.103924411159339">
<ele>132.04052563476571</ele>
<time>2016-07-30T16:28:15Z</time>
</trkpt>
<trkpt lat="49.06350159513337" lon="8.104408411159339">
<ele>131.7285256347657</ele>
<time>2016-07-30T16:28:21Z</time>
</trkpt>
<trkpt lat="49.063488595133364" lon="8.10464241115934">
<ele>131.6595256347657</ele>
<time>2016-07-30T16:28:24Z</time>
</trkpt>
<trkpt lat="49.063457595133364" lon="8.105317411159339">
<ele>131.65552563476572</ele>
<time>2016-07-30T16:28:34Z</time>
</trkpt>
<trkpt lat="49.063477595133364" lon="8.105419411159339">
<ele>131.63352563476573</ele>
<time>2016-07-30T16:28:36Z</time>
</trkpt>
<trkpt lat="49.063505595133364" lon="8.105578411159339">
<ele>131.71552563476573</ele>
<time>2016-07-30T16:28:38Z</time>
</trkpt>
<trkpt lat="49.06439559513336" lon="8.10552041115934">
<ele>132.17352563476572</ele>
<time>2016-07-30T16:29:00Z</time>
</trkpt>
<trkpt lat="49.06446559513336" lon="8.10557541115934">
<ele>132.22152563476573</ele>
<time>2016-07-30T16:29:02Z</time>
</trkpt>
<trkpt lat="49.064495595133366" lon="8.10570741115934">
<ele>132.38352563476573</ele>
<time>2016-07-30T16:29:05Z</time>
</trkpt>
<trkpt lat="49.064633595133365" lon="8.10702641115934">
<ele>133.43652563476573</ele>
<time>2016-07-30T16:29:28Z</time>
</trkpt>
<trkpt lat="49.064642595133364" lon="8.10733941115934">
<ele>133.93952563476572</ele>
<time>2016-07-30T16:29:35Z</time>
</trkpt>
<trkpt lat="49.06466059513336" lon="8.10799541115934">
<ele>134.82652563476572</ele>
<time>2016-07-30T16:29:48Z</time>
</trkpt>
<trkpt lat="49.06467859513336" lon="8.10867841115934">
<ele>135.78552563476572</ele>
<time>2016-07-30T16:30:02Z</time>
</trkpt>
<trkpt lat="49.065118595133356" lon="8.108722411159341">
<ele>136.70852563476572</ele>
<time>2016-07-30T16:30:16Z</time>
</trkpt>
<trkpt lat="49.06517959513336" lon="8.108767411159342">
<ele>136.91752563476572</ele>
<time>2016-07-30T16:30:18Z</time>
</trkpt>
<trkpt lat="49.06523859513336" lon="8.108706411159341">
<ele>137.0935256347657</ele>
<time>2016-07-30T16:30:20Z</time>
</trkpt>
<trkpt lat="49.06551659513336" lon="8.10865941115934">
<ele>137.66652563476572</ele>
<time>2016-07-30T16:30:29Z</time>
</trkpt>
<trkpt lat="49.06609559513336" lon="8.10864041115934">
<ele>138.76252563476572</ele>
<time>2016-07-30T16:30:47Z</time>
</trkpt>
<trkpt lat="49.06622759513336" lon="8.10974941115934">
<ele>140.08852563476572</ele>
<time>2016-07-30T16:31:09Z</time>
</trkpt>
<trkpt lat="49.06622859513336" lon="8.10980941115934">
<ele>140.16552563476571</ele>
<time>2016-07-30T16:31:11Z</time>
</trkpt>
<trkpt lat="49.06624859513336" lon="8.11192841115934">
<ele>140.28552563476572</ele>
<time>2016-07-30T16:31:43Z</time>
</trkpt>
<trkpt lat="49.06627759513336" lon="8.11273341115934">
<ele>140.13352563476573</ele>
<time>2016-07-30T16:31:55Z</time>
</trkpt>
<trkpt lat="49.066340595133354" lon="8.11324041115934">
<ele>139.88852563476573</ele>
<time>2016-07-30T16:32:02Z</time>
</trkpt>
<trkpt lat="49.06645159513335" lon="8.11434241115934">
<ele>139.10352563476573</ele>
<time>2016-07-30T16:32:17Z</time>
</trkpt>
<trkpt lat="49.06655559513335" lon="8.11514841115934">
<ele>138.46152563476574</ele>
<time>2016-07-30T16:32:27Z</time>
</trkpt>
<trkpt lat="49.06663759513335" lon="8.11587541115934">
<ele>137.96652563476573</ele>
<time>2016-07-30T16:32:37Z</time>
</trkpt>
<trkpt lat="49.06675859513335" lon="8.116885411159341">
<ele>137.29152563476572</ele>
<time>2016-07-30T16:32:51Z</time>
</trkpt>
<trkpt lat="49.06686859513335" lon="8.117946411159341">
<ele>136.78652563476572</ele>
<time>2016-07-30T16:33:06Z</time>
</trkpt>
<trkpt lat="49.06687459513335" lon="8.11805141115934">
<ele>136.77452563476572</ele>
<time>2016-07-30T16:33:07Z</time>
</trkpt>
<trkpt lat="49.06690559513335" lon="8.11856641115934">
<ele>136.68452563476572</ele>
<time>2016-07-30T16:33:15Z</time>
</trkpt>
<trkpt lat="49.06683959513335" lon="8.11963441115934">
<ele>136.5275256347657</ele>
<time>2016-07-30T16:33:30Z</time>
</trkpt>
<trkpt lat="49.066917595133354" lon="8.120381411159341">
<ele>136.35152563476572</ele>
<time>2016-07-30T16:33:41Z</time>
</trkpt>
<trkpt lat="49.06706759513335" lon="8.121200411159341">
<ele>136.0995256347657</ele>
<time>2016-07-30T16:33:53Z</time>
</trkpt>
<trkpt lat="49.06716159513335" lon="8.121581411159342">
<ele>135.9065256347657</ele>
<time>2016-07-30T16:33:59Z</time>
</trkpt>
<trkpt lat="49.06735159513335" lon="8.122509411159342">
<ele>135.4085256347657</ele>
<time>2016-07-30T16:34:12Z</time>
</trkpt>
<trkpt lat="49.06761459513335" lon="8.124843411159341">
<ele>134.2925256347657</ele>
<time>2016-07-30T16:34:45Z</time>
</trkpt>
<trkpt lat="49.06760759513335" lon="8.125164411159341">
<ele>134.1715256347657</ele>
<time>2016-07-30T16:34:49Z</time>
</trkpt>
<trkpt lat="49.06766159513335" lon="8.125233411159341">
<ele>134.1685256347657</ele>
<time>2016-07-30T16:34:51Z</time>
</trkpt>
<trkpt lat="49.06808959513335" lon="8.12579641115934">
<ele>133.9915256347657</ele>
<time>2016-07-30T16:35:03Z</time>
</trkpt>
<trkpt lat="49.06816259513335" lon="8.12570941115934">
<ele>133.9615256347657</ele>
<time>2016-07-30T16:35:05Z</time>
</trkpt>
<trkpt lat="49.06891459513335" lon="8.12659041115934">
<ele>134.0085256347657</ele>
<time>2016-07-30T16:35:26Z</time>
</trkpt>
<trkpt lat="49.06989059513335" lon="8.12773341115934">
<ele>133.9835256347657</ele>
<time>2016-07-30T16:35:53Z</time>
</trkpt>
<trkpt lat="49.07027159513335" lon="8.128150411159341">
<ele>133.9595256347657</ele>
<time>2016-07-30T16:36:04Z</time>
</trkpt>
<trkpt lat="49.07072459513335" lon="8.129007411159341">
<ele>133.8725256347657</ele>
<time>2016-07-30T16:36:19Z</time>
</trkpt>
<trkpt lat="49.07119659513335" lon="8.13008541115934">
<ele>133.8245256347657</ele>
<time>2016-07-30T16:36:38Z</time>
</trkpt>
<trkpt lat="49.07127059513335" lon="8.13032841115934">
<ele>133.7565256347657</ele>
<time>2016-07-30T16:36:42Z</time>
</trkpt>
<trkpt lat="49.07139759513335" lon="8.13070741115934">
<ele>133.6865256347657</ele>
<time>2016-07-30T16:36:48Z</time>
</trkpt>
<trkpt lat="49.071530595133346" lon="8.13121141115934">
<ele>133.5635256347657</ele>
<time>2016-07-30T16:36:55Z</time>
</trkpt>
<trkpt lat="49.07157459513335" lon="8.13141241115934">
<ele>133.5345256347657</ele>
<time>2016-07-30T16:36:58Z</time>
</trkpt>
<trkpt lat="49.07165359513335" lon="8.13187541115934">
<ele>133.3665256347657</ele>
<time>2016-07-30T16:37:05Z</time>
</trkpt>
<trkpt lat="49.07173459513335" lon="8.132560411159341">
<ele>133.1315256347657</ele>
<time>2016-07-30T16:37:14Z</time>
</trkpt>
<trkpt lat="49.07176959513335" lon="8.134434411159342">
<ele>132.1005256347657</ele>
<time>2016-07-30T16:37:38Z</time>
</trkpt>
<trkpt lat="49.07182859513335" lon="8.135463411159343">
<ele>132.28252563476568</ele>
<time>2016-07-30T16:37:54Z</time>
</trkpt>
<trkpt lat="49.07176559513335" lon="8.135478411159342">
<ele>132.37552563476567</ele>
<time>2016-07-30T16:37:56Z</time>
</trkpt>
<trkpt lat="49.07178059513335" lon="8.135701411159342">
<ele>132.50552563476566</ele>
<time>2016-07-30T16:38:00Z</time>
</trkpt>
<trkpt lat="49.07181159513335" lon="8.136173411159342">
<ele>133.12652563476567</ele>
<time>2016-07-30T16:38:09Z</time>
</trkpt>
<trkpt lat="49.071837595133346" lon="8.136541411159342">
<ele>133.86552563476567</ele>
<time>2016-07-30T16:38:17Z</time>
</trkpt>
<trkpt lat="49.071919595133345" lon="8.137385411159343">
<ele>135.26952563476567</ele>
<time>2016-07-30T16:38:36Z</time>
</trkpt>
<trkpt lat="49.07200859513335" lon="8.138163411159343">
<ele>137.10352563476567</ele>
<time>2016-07-30T16:38:54Z</time>
</trkpt>
<trkpt lat="49.072023595133345" lon="8.138638411159343">
<ele>138.28852563476568</ele>
<time>2016-07-30T16:39:06Z</time>
</trkpt>
<trkpt lat="49.072048595133346" lon="8.139470411159344">
<ele>140.06752563476567</ele>
<time>2016-07-30T16:39:25Z</time>
</trkpt>
<trkpt lat="49.07207059513335" lon="8.139676411159344">
<ele>140.47252563476567</ele>
<time>2016-07-30T16:39:30Z</time>
</trkpt>
<trkpt lat="49.07209259513335" lon="8.139868411159345">
<ele>140.86552563476567</ele>
<time>2016-07-30T16:39:34Z</time>
</trkpt>
<trkpt lat="49.07214259513335" lon="8.139870411159345">
<ele>140.98052563476568</ele>
<time>2016-07-30T16:39:36Z</time>
</trkpt>
<trkpt lat="49.07223959513335" lon="8.139875411159345">
<ele>141.16952563476568</ele>
<time>2016-07-30T16:39:39Z</time>
</trkpt>
<trkpt lat="49.07242259513335" lon="8.139884411159345">
<ele>141.61152563476568</ele>
<time>2016-07-30T16:39:45Z</time>
</trkpt>
<trkpt lat="49.07274259513335" lon="8.139916411159344">
<ele>141.9765256347657</ele>
<time>2016-07-30T16:39:53Z</time>
</trkpt>
<trkpt lat="49.07299359513335" lon="8.139785411159345">
<ele>142.1255256347657</ele>
<time>2016-07-30T16:40:00Z</time>
</trkpt>
<trkpt lat="49.07309359513335" lon="8.139683411159345">
<ele>142.27152563476568</ele>
<time>2016-07-30T16:40:03Z</time>
</trkpt>
<trkpt lat="49.07322359513335" lon="8.139535411159345">
<ele>142.31252563476568</ele>
<time>2016-07-30T16:40:07Z</time>
</trkpt>
<trkpt lat="49.07371559513335" lon="8.138969411159346">
<ele>142.59752563476567</ele>
<time>2016-07-30T16:40:22Z</time>
</trkpt>
<trkpt lat="49.07403759513335" lon="8.139130411159346">
<ele>142.57852563476567</ele>
<time>2016-07-30T16:40:30Z</time>
</trkpt>
<trkpt lat="49.07527759513335" lon="8.140590411159346">
<ele>142.42352563476567</ele>
<time>2016-07-30T16:41:05Z</time>
</trkpt>
<trkpt lat="49.07540159513335" lon="8.140977411159346">
<ele>142.46452563476566</ele>
<time>2016-07-30T16:41:12Z</time>
</trkpt>
<trkpt lat="49.07615659513335" lon="8.143323411159345">
<ele>142.73752563476566</ele>
<time>2016-07-30T16:41:53Z</time>
</trkpt>
<trkpt lat="49.07635959513335" lon="8.143939411159346">
<ele>142.78452563476566</ele>
<time>2016-07-30T16:42:04Z</time>
</trkpt>
<trkpt lat="49.07638659513335" lon="8.144056411159346">
<ele>142.82852563476567</ele>
<time>2016-07-30T16:42:06Z</time>
</trkpt>
<trkpt lat="49.07653759513335" lon="8.145329411159345">
<ele>142.93052563476567</ele>
<time>2016-07-30T16:42:26Z</time>
</trkpt>
<trkpt lat="49.07720159513335" lon="8.150886411159345">
<ele>142.15852563476568</ele>
<time>2016-07-30T16:43:49Z</time>
</trkpt>
<trkpt lat="49.07720259513335" lon="8.150887411159344">
<ele>142.1195256347657</ele>
<time>2016-07-30T16:43:49Z</time>
</trkpt>
<trkpt lat="49.07450659513335" lon="8.151641411159344">
<ele>136.3565256347657</ele>
<time>2016-07-30T16:44:39Z</time>
</trkpt>
<trkpt lat="49.07287559513335" lon="8.152272411159345">
<ele>129.7615256347657</ele>
<time>2016-07-30T16:45:07Z</time>
</trkpt>
<trkpt lat="49.07302659513335" lon="8.154597411159346">
<ele>126.80352563476569</ele>
<time>2016-07-30T16:45:35Z</time>
</trkpt>
<trkpt lat="49.07316759513335" lon="8.156928411159345">
<ele>126.15052563476569</ele>
<time>2016-07-30T16:46:09Z</time>
</trkpt>
<trkpt lat="49.07323459513335" lon="8.157884411159346">
<ele>125.78452563476569</ele>
<time>2016-07-30T16:46:22Z</time>
</trkpt>
<trkpt lat="49.07328559513335" lon="8.158849411159347">
<ele>125.36452563476568</ele>
<time>2016-07-30T16:46:35Z</time>
</trkpt>
<trkpt lat="49.073382595133346" lon="8.160771411159347">
<ele>124.39452563476569</ele>
<time>2016-07-30T16:47:02Z</time>
</trkpt>
<trkpt lat="49.07335559513334" lon="8.161380411159348">
<ele>124.11252563476569</ele>
<time>2016-07-30T16:47:10Z</time>
</trkpt>
<trkpt lat="49.07325759513334" lon="8.165200411159347">
<ele>123.02252563476569</ele>
<time>2016-07-30T16:48:04Z</time>
</trkpt>
<trkpt lat="49.07328859513334" lon="8.165715411159347">
<ele>122.89452563476569</ele>
<time>2016-07-30T16:48:12Z</time>
</trkpt>
<trkpt lat="49.073236595133345" lon="8.165816411159348">
<ele>122.90552563476568</ele>
<time>2016-07-30T16:48:14Z</time>
</trkpt>
<trkpt lat="49.073199595133346" lon="8.165824411159347">
<ele>122.88752563476568</ele>
<time>2016-07-30T16:48:15Z</time>
</trkpt>
<trkpt lat="49.07316459513335" lon="8.165829411159347">
<ele>122.83052563476568</ele>
<time>2016-07-30T16:48:15Z</time>
</trkpt>
<trkpt lat="49.07253759513335" lon="8.166000411159347">
<ele>122.66252563476567</ele>
<time>2016-07-30T16:48:29Z</time>
</trkpt>
<trkpt lat="49.07248559513335" lon="8.166016411159347">
<ele>122.63652563476568</ele>
<time>2016-07-30T16:48:31Z</time>
</trkpt>
<trkpt lat="49.07305159513335" lon="8.168344411159348">
<ele>122.00452563476567</ele>
<time>2016-07-30T16:49:06Z</time>
</trkpt>
<trkpt lat="49.07353659513335" lon="8.170303411159347">
<ele>121.79852563476567</ele>
<time>2016-07-30T16:49:37Z</time>
</trkpt>
<trkpt lat="49.07415559513335" lon="8.172468411159347">
<ele>121.55252563476567</ele>
<time>2016-07-30T16:50:12Z</time>
</trkpt>
<trkpt lat="49.07476959513335" lon="8.174353411159347">
<ele>121.09752563476567</ele>
<time>2016-07-30T16:50:43Z</time>
</trkpt>
<trkpt lat="49.07567159513335" lon="8.177125411159347">
<ele>120.43752563476568</ele>
<time>2016-07-30T16:51:27Z</time>
</trkpt>
<trkpt lat="49.07658259513335" lon="8.179709411159347">
<ele>120.36552563476567</ele>
<time>2016-07-30T16:52:12Z</time>
</trkpt>
<trkpt lat="49.078132595133354" lon="8.184015411159347">
<ele>119.42452563476567</ele>
<time>2016-07-30T16:53:23Z</time>
</trkpt>
<trkpt lat="49.078697595133356" lon="8.185606411159347">
<ele>118.67652563476567</ele>
<time>2016-07-30T16:53:48Z</time>
</trkpt>
<trkpt lat="49.07872259513336" lon="8.185698411159347">
<ele>118.61252563476567</ele>
<time>2016-07-30T16:53:49Z</time>
</trkpt>
<trkpt lat="49.07958059513336" lon="8.188974411159347">
<ele>118.60252563476567</ele>
<time>2016-07-30T16:54:41Z</time>
</trkpt>
<trkpt lat="49.07971459513336" lon="8.189189411159347">
<ele>118.77952563476568</ele>
<time>2016-07-30T16:54:46Z</time>
</trkpt>
<trkpt lat="49.07975559513336" lon="8.189258411159347">
<ele>118.90152563476568</ele>
<time>2016-07-30T16:54:49Z</time>
</trkpt>
<trkpt lat="49.08018059513336" lon="8.190898411159347">
<ele>120.09052563476567</ele>
<time>2016-07-30T16:55:37Z</time>
</trkpt>
<trkpt lat="49.080230595133365" lon="8.191120411159348">
<ele>120.21252563476567</ele>
<time>2016-07-30T16:55:41Z</time>
</trkpt>
<trkpt lat="49.080261595133365" lon="8.191255411159348">
<ele>120.29452563476566</ele>
<time>2016-07-30T16:55:43Z</time>
</trkpt>
<trkpt lat="49.08044359513337" lon="8.192109411159349">
<ele>120.58952563476566</ele>
<time>2016-07-30T16:55:58Z</time>
</trkpt>
<trkpt lat="49.080587595133366" lon="8.192831411159348">
<ele>120.82052563476566</ele>
<time>2016-07-30T16:56:10Z</time>
</trkpt>
<trkpt lat="49.080613595133364" lon="8.192816411159349">
<ele>120.82452563476566</ele>
<time>2016-07-30T16:56:11Z</time>
</trkpt>
<trkpt lat="49.08067059513336" lon="8.193033411159348">
<ele>120.98052563476567</ele>
<time>2016-07-30T16:56:15Z</time>
</trkpt>
<trkpt lat="49.08065759513336" lon="8.193041411159347">
<ele>120.97952563476566</ele>
<time>2016-07-30T16:56:16Z</time>
</trkpt>
<trkpt lat="49.08066659513336" lon="8.193072411159347">
<ele>120.99352563476566</ele>
<time>2016-07-30T16:56:16Z</time>
</trkpt>
<trkpt lat="49.08088759513336" lon="8.193854411159347">
<ele>121.17352563476567</ele>
<time>2016-07-30T16:56:30Z</time>
</trkpt>
<trkpt lat="49.08092159513336" lon="8.193976411159346">
<ele>121.24952563476566</ele>
<time>2016-07-30T16:56:32Z</time>
</trkpt>
<trkpt lat="49.08103059513336" lon="8.194360411159346">
<ele>121.19452563476565</ele>
<time>2016-07-30T16:56:38Z</time>
</trkpt>
<trkpt lat="49.08106159513336" lon="8.194459411159347">
<ele>121.25152563476566</ele>
<time>2016-07-30T16:56:40Z</time>
</trkpt>
<trkpt lat="49.08115759513336" lon="8.194724411159347">
<ele>121.27552563476566</ele>
<time>2016-07-30T16:56:45Z</time>
</trkpt>
<trkpt lat="49.08123759513336" lon="8.194761411159348">
<ele>121.27352563476566</ele>
<time>2016-07-30T16:56:47Z</time>
</trkpt>
<trkpt lat="49.08141959513336" lon="8.195436411159347">
<ele>121.54152563476566</ele>
<time>2016-07-30T16:56:59Z</time>
</trkpt>
<trkpt lat="49.081463595133364" lon="8.195501411159347">
<ele>121.58352563476566</ele>
<time>2016-07-30T16:57:01Z</time>
</trkpt>
<trkpt lat="49.081572595133366" lon="8.196150411159346">
<ele>121.71252563476567</ele>
<time>2016-07-30T16:57:11Z</time>
</trkpt>
<trkpt lat="49.081595595133365" lon="8.196278411159346">
<ele>121.71752563476566</ele>
<time>2016-07-30T16:57:13Z</time>
</trkpt>
<trkpt lat="49.081705595133364" lon="8.196973411159346">
<ele>121.70252563476566</ele>
<time>2016-07-30T16:57:23Z</time>
</trkpt>
<trkpt lat="49.08177959513336" lon="8.197480411159347">
<ele>121.55652563476566</ele>
<time>2016-07-30T16:57:31Z</time>
</trkpt>
<trkpt lat="49.08184759513336" lon="8.198177411159348">
<ele>121.21152563476566</ele>
<time>2016-07-30T16:57:40Z</time>
</trkpt>
<trkpt lat="49.08190059513336" lon="8.198565411159347">
<ele>121.05152563476567</ele>
<time>2016-07-30T16:57:45Z</time>
</trkpt>
<trkpt lat="49.08194059513336" lon="8.198855411159347">
<ele>120.94652563476566</ele>
<time>2016-07-30T16:57:49Z</time>
</trkpt>
<trkpt lat="49.081995595133364" lon="8.199071411159347">
<ele>120.86352563476567</ele>
<time>2016-07-30T16:57:52Z</time>
</trkpt>
<trkpt lat="49.08201959513337" lon="8.199167411159346">
<ele>120.81752563476566</ele>
<time>2016-07-30T16:57:54Z</time>
</trkpt>
<trkpt lat="49.08214259513337" lon="8.199883411159346">
<ele>120.58452563476565</ele>
<time>2016-07-30T16:58:04Z</time>
</trkpt>
<trkpt lat="49.08220959513337" lon="8.200249411159346">
<ele>120.48952563476566</ele>
<time>2016-07-30T16:58:09Z</time>
</trkpt>
<trkpt lat="49.08270259513337" lon="8.202339411159347">
<ele>119.81252563476565</ele>
<time>2016-07-30T16:58:39Z</time>
</trkpt>
<trkpt lat="49.08286359513337" lon="8.203028411159346">
<ele>119.61252563476565</ele>
<time>2016-07-30T16:58:49Z</time>
</trkpt>
<trkpt lat="49.084077595133365" lon="8.208339411159347">
<ele>116.83152563476564</ele>
<time>2016-07-30T17:00:02Z</time>
</trkpt>
<trkpt lat="49.084147595133366" lon="8.208654411159348">
<ele>116.68452563476563</ele>
<time>2016-07-30T17:00:07Z</time>
</trkpt>
<trkpt lat="49.08418859513337" lon="8.208843411159348">
<ele>116.49852563476563</ele>
<time>2016-07-30T17:00:09Z</time>
</trkpt>
<trkpt lat="49.08455559513337" lon="8.210266411159349">
<ele>116.58252563476563</ele>
<time>2016-07-30T17:00:32Z</time>
</trkpt>
<trkpt lat="49.08472359513337" lon="8.21090241115935">
<ele>116.84152563476563</ele>
<time>2016-07-30T17:00:43Z</time>
</trkpt>
<trkpt lat="49.08473959513337" lon="8.210964411159349">
<ele>116.86852563476563</ele>
<time>2016-07-30T17:00:44Z</time>
</trkpt>
<trkpt lat="49.08491959513337" lon="8.21092341115935">
<ele>117.17552563476563</ele>
<time>2016-07-30T17:00:49Z</time>
</trkpt>
<trkpt lat="49.08503459513337" lon="8.21088041115935">
<ele>117.24552563476563</ele>
<time>2016-07-30T17:00:52Z</time>
</trkpt>
<trkpt lat="49.085160595133374" lon="8.21075041115935">
<ele>117.53252563476563</ele>
<time>2016-07-30T17:00:57Z</time>
</trkpt>
<trkpt lat="49.085444595133374" lon="8.21063341115935">
<ele>117.90552563476564</ele>
<time>2016-07-30T17:01:05Z</time>
</trkpt>
<trkpt lat="49.085570595133376" lon="8.21059041115935">
<ele>118.24252563476564</ele>
<time>2016-07-30T17:01:09Z</time>
</trkpt>
<trkpt lat="49.08563959513338" lon="8.21056941115935">
<ele>118.35352563476565</ele>
<time>2016-07-30T17:01:11Z</time>
</trkpt>
<trkpt lat="49.08587959513338" lon="8.210582411159349">
<ele>118.82252563476564</ele>
<time>2016-07-30T17:01:18Z</time>
</trkpt>
<trkpt lat="49.085950595133376" lon="8.21057441115935">
<ele>118.96452563476564</ele>
<time>2016-07-30T17:01:20Z</time>
</trkpt>
<trkpt lat="49.08597459513338" lon="8.21086641115935">
<ele>119.27452563476564</ele>
<time>2016-07-30T17:01:26Z</time>
</trkpt>
<trkpt lat="49.08688659513338" lon="8.21113241115935">
<ele>121.19752563476564</ele>
<time>2016-07-30T17:01:54Z</time>
</trkpt>
<trkpt lat="49.087706595133376" lon="8.21109941115935">
<ele>122.03552563476563</ele>
<time>2016-07-30T17:02:16Z</time>
</trkpt>
<trkpt lat="49.089237595133376" lon="8.211097411159349">
<ele>122.30252563476563</ele>
<time>2016-07-30T17:02:51Z</time>
</trkpt>
<trkpt lat="49.089499595133375" lon="8.212132411159349">
<ele>121.98652563476563</ele>
<time>2016-07-30T17:03:06Z</time>
</trkpt>
<trkpt lat="49.08964459513338" lon="8.212664411159349">
<ele>121.70452563476563</ele>
<time>2016-07-30T17:03:14Z</time>
</trkpt>
<trkpt lat="49.08992559513338" lon="8.213682411159349">
<ele>121.05252563476563</ele>
<time>2016-07-30T17:03:28Z</time>
</trkpt>
<trkpt lat="49.09017859513338" lon="8.214623411159348">
<ele>120.42052563476562</ele>
<time>2016-07-30T17:03:41Z</time>
</trkpt>
<trkpt lat="49.09038459513338" lon="8.215863411159347">
<ele>120.03452563476563</ele>
<time>2016-07-30T17:03:58Z</time>
</trkpt>
<trkpt lat="49.09045959513338" lon="8.216361411159347">
<ele>119.95052563476563</ele>
<time>2016-07-30T17:04:05Z</time>
</trkpt>
<trkpt lat="49.09180559513338" lon="8.216436411159348">
<ele>120.40252563476562</ele>
<time>2016-07-30T17:04:38Z</time>
</trkpt>
<trkpt lat="49.09231859513338" lon="8.216449411159347">
<ele>120.77952563476562</ele>
<time>2016-07-30T17:04:52Z</time>
</trkpt>
<trkpt lat="49.09342959513338" lon="8.216427411159348">
<ele>121.04752563476562</ele>
<time>2016-07-30T17:05:19Z</time>
</trkpt>
<trkpt lat="49.09459059513338" lon="8.216468411159347">
<ele>120.24252563476561</ele>
<time>2016-07-30T17:05:43Z</time>
</trkpt>
<trkpt lat="49.096221595133386" lon="8.216597411159347">
<ele>118.28752563476561</ele>
<time>2016-07-30T17:06:15Z</time>
</trkpt>
<trkpt lat="49.09669059513339" lon="8.216598411159346">
<ele>117.86952563476561</ele>
<time>2016-07-30T17:06:25Z</time>
</trkpt>
<trkpt lat="49.099151595133385" lon="8.216955411159345">
<ele>117.01852563476561</ele>
<time>2016-07-30T17:07:19Z</time>
</trkpt>
<trkpt lat="49.099373595133386" lon="8.220547411159345">
<ele>116.3895256347656</ele>
<time>2016-07-30T17:08:12Z</time>
</trkpt>
<trkpt lat="49.098974595133384" lon="8.223797411159344">
<ele>116.0315256347656</ele>
<time>2016-07-30T17:09:01Z</time>
</trkpt>
<trkpt lat="49.099053595133384" lon="8.224562411159344">
<ele>115.9885256347656</ele>
<time>2016-07-30T17:09:12Z</time>
</trkpt>
<trkpt lat="49.099095595133385" lon="8.224555411159344">
<ele>115.98752563476559</ele>
<time>2016-07-30T17:09:13Z</time>
</trkpt>
<trkpt lat="49.101515595133385" lon="8.224156411159344">
<ele>115.70752563476559</ele>
<time>2016-07-30T17:10:09Z</time>
</trkpt>
<trkpt lat="49.10159659513339" lon="8.224143411159345">
<ele>115.70252563476559</ele>
<time>2016-07-30T17:10:10Z</time>
</trkpt>
<trkpt lat="49.10317959513338" lon="8.223887411159344">
<ele>115.31852563476559</ele>
<time>2016-07-30T17:10:46Z</time>
</trkpt>
<trkpt lat="49.10400159513338" lon="8.223765411159345">
<ele>115.0815256347656</ele>
<time>2016-07-30T17:11:04Z</time>
</trkpt>
<trkpt lat="49.10411959513338" lon="8.223755411159345">
<ele>115.08052563476559</ele>
<time>2016-07-30T17:11:07Z</time>
</trkpt>
<trkpt lat="49.10512159513338" lon="8.223584411159345">
<ele>116.5425256347656</ele>
<time>2016-07-30T17:11:36Z</time>
</trkpt>
<trkpt lat="49.105207595133386" lon="8.223570411159345">
<ele>116.7285256347656</ele>
<time>2016-07-30T17:11:39Z</time>
</trkpt>
<trkpt lat="49.105523595133384" lon="8.223504411159345">
<ele>117.5875256347656</ele>
<time>2016-07-30T17:11:50Z</time>
</trkpt>
<trkpt lat="49.10704359513338" lon="8.223291411159344">
<ele>122.7065256347656</ele>
<time>2016-07-30T17:12:46Z</time>
</trkpt>
<trkpt lat="49.107028595133386" lon="8.227018411159344">
<ele>128.0505256347656</ele>
<time>2016-07-30T17:14:04Z</time>
</trkpt>
<trkpt lat="49.107028595133386" lon="8.227137411159344">
<ele>128.14952563476558</ele>
<time>2016-07-30T17:14:06Z</time>
</trkpt>
<trkpt lat="49.10701959513339" lon="8.229258411159345">
<ele>129.25652563476558</ele>
<time>2016-07-30T17:14:43Z</time>
</trkpt>
<trkpt lat="49.10701259513339" lon="8.231113411159345">
<ele>129.4365256347656</ele>
<time>2016-07-30T17:15:11Z</time>
</trkpt>
<trkpt lat="49.10702459513339" lon="8.231324411159346">
<ele>129.4275256347656</ele>
<time>2016-07-30T17:15:15Z</time>
</trkpt>
<trkpt lat="49.10707459513339" lon="8.232166411159346">
<ele>128.9225256347656</ele>
<time>2016-07-30T17:15:26Z</time>
</trkpt>
<trkpt lat="49.10724659513339" lon="8.233062411159345">
<ele>128.2355256347656</ele>
<time>2016-07-30T17:15:38Z</time>
</trkpt>
<trkpt lat="49.10727759513339" lon="8.233218411159346">
<ele>127.9745256347656</ele>
<time>2016-07-30T17:15:40Z</time>
</trkpt>
<trkpt lat="49.10779459513339" lon="8.236053411159345">
<ele>123.1015256347656</ele>
<time>2016-07-30T17:16:14Z</time>
</trkpt>
<trkpt lat="49.10780359513339" lon="8.236096411159345">
<ele>123.0125256347656</ele>
<time>2016-07-30T17:16:15Z</time>
</trkpt>
<trkpt lat="49.10786059513339" lon="8.236387411159345">
<ele>122.41352563476559</ele>
<time>2016-07-30T17:16:18Z</time>
</trkpt>
<trkpt lat="49.10826559513339" lon="8.238306411159344">
<ele>118.92152563476559</ele>
<time>2016-07-30T17:16:42Z</time>
</trkpt>
<trkpt lat="49.108587595133386" lon="8.239305411159345">
<ele>117.56052563476558</ele>
<time>2016-07-30T17:16:55Z</time>
</trkpt>
<trkpt lat="49.10888459513339" lon="8.240336411159344">
<ele>116.78152563476559</ele>
<time>2016-07-30T17:17:10Z</time>
</trkpt>
<trkpt lat="49.10915359513339" lon="8.241221411159344">
<ele>116.57552563476558</ele>
<time>2016-07-30T17:17:24Z</time>
</trkpt>
<trkpt lat="49.109338595133394" lon="8.241897411159345">
<ele>116.59052563476558</ele>
<time>2016-07-30T17:17:36Z</time>
</trkpt>
<trkpt lat="49.10961559513339" lon="8.242709411159344">
<ele>116.41152563476558</ele>
<time>2016-07-30T17:17:49Z</time>
</trkpt>
<trkpt lat="49.10983259513339" lon="8.243349411159345">
<ele>116.20252563476558</ele>
<time>2016-07-30T17:17:59Z</time>
</trkpt>
<trkpt lat="49.10982759513339" lon="8.243409411159345">
<ele>116.19452563476558</ele>
<time>2016-07-30T17:18:00Z</time>
</trkpt>
<trkpt lat="49.10986959513339" lon="8.243565411159345">
<ele>116.15452563476558</ele>
<time>2016-07-30T17:18:02Z</time>
</trkpt>
<trkpt lat="49.10989959513339" lon="8.243593411159345">
<ele>116.14252563476558</ele>
<time>2016-07-30T17:18:03Z</time>
</trkpt>
<trkpt lat="49.10999559513339" lon="8.243947411159345">
<ele>115.99252563476557</ele>
<time>2016-07-30T17:18:08Z</time>
</trkpt>
<trkpt lat="49.11000659513339" lon="8.244021411159345">
<ele>115.96852563476557</ele>
<time>2016-07-30T17:18:09Z</time>
</trkpt>
<trkpt lat="49.10981559513339" lon="8.244145411159344">
<ele>115.82052563476557</ele>
<time>2016-07-30T17:18:14Z</time>
</trkpt>
<trkpt lat="49.10960159513339" lon="8.244287411159345">
<ele>115.62752563476558</ele>
<time>2016-07-30T17:18:18Z</time>
</trkpt>
<trkpt lat="49.109476595133394" lon="8.244374411159345">
<ele>115.46652563476557</ele>
<time>2016-07-30T17:18:21Z</time>
</trkpt>
<trkpt lat="49.109017595133395" lon="8.244698411159346">
<ele>114.81552563476558</ele>
<time>2016-07-30T17:18:30Z</time>
</trkpt>
<trkpt lat="49.108736595133394" lon="8.244897411159346">
<ele>114.35152563476558</ele>
<time>2016-07-30T17:18:36Z</time>
</trkpt>
<trkpt lat="49.10851759513339" lon="8.245045411159346">
<ele>114.02552563476559</ele>
<time>2016-07-30T17:18:40Z</time>
</trkpt>
<trkpt lat="49.108643595133394" lon="8.245503411159346">
<ele>113.64452563476559</ele>
<time>2016-07-30T17:18:47Z</time>
</trkpt>
<trkpt lat="49.10880759513339" lon="8.246285411159345">
<ele>113.17552563476559</ele>
<time>2016-07-30T17:18:58Z</time>
</trkpt>
<trkpt lat="49.108947595133394" lon="8.247066411159345">
<ele>112.85652563476559</ele>
<time>2016-07-30T17:19:09Z</time>
</trkpt>
<trkpt lat="49.108952595133395" lon="8.247138411159344">
<ele>112.83252563476559</ele>
<time>2016-07-30T17:19:10Z</time>
</trkpt>
<trkpt lat="49.10924059513339" lon="8.248325411159344">
<ele>112.3425256347656</ele>
<time>2016-07-30T17:19:28Z</time>
</trkpt>
<trkpt lat="49.10927159513339" lon="8.248451411159344">
<ele>112.32452563476559</ele>
<time>2016-07-30T17:19:30Z</time>
</trkpt>
<trkpt lat="49.109340595133396" lon="8.248723411159345">
<ele>112.2955256347656</ele>
<time>2016-07-30T17:19:34Z</time>
</trkpt>
<trkpt lat="49.1094635951334" lon="8.249212411159345">
<ele>112.3045256347656</ele>
<time>2016-07-30T17:19:42Z</time>
</trkpt>
<trkpt lat="49.109529595133395" lon="8.249442411159345">
<ele>112.3225256347656</ele>
<time>2016-07-30T17:19:46Z</time>
</trkpt>
<trkpt lat="49.10987959513339" lon="8.250738411159345">
<ele>112.4275256347656</ele>
<time>2016-07-30T17:20:08Z</time>
</trkpt>
<trkpt lat="49.10990459513339" lon="8.250796411159344">
<ele>112.3835256347656</ele>
<time>2016-07-30T17:20:09Z</time>
</trkpt>
<trkpt lat="49.10993359513339" lon="8.250851411159344">
<ele>112.4545256347656</ele>
<time>2016-07-30T17:20:10Z</time>
</trkpt>
<trkpt lat="49.11090959513339" lon="8.252936411159343">
<ele>113.0545256347656</ele>
<time>2016-07-30T17:20:51Z</time>
</trkpt>
<trkpt lat="49.111465595133396" lon="8.254927411159343">
<ele>115.1405256347656</ele>
<time>2016-07-30T17:21:33Z</time>
</trkpt>
<trkpt lat="49.110584595133396" lon="8.255603411159344">
<ele>118.14552563476559</ele>
<time>2016-07-30T17:22:08Z</time>
</trkpt>
<trkpt lat="49.10972459513339" lon="8.256320411159344">
<ele>122.4355256347656</ele>
<time>2016-07-30T17:22:47Z</time>
</trkpt>
<trkpt lat="49.108755595133395" lon="8.257089411159344">
<ele>125.1645256347656</ele>
<time>2016-07-30T17:23:24Z</time>
</trkpt>
<trkpt lat="49.10851159513339" lon="8.258808411159343">
<ele>126.41352563476559</ele>
<time>2016-07-30T17:23:55Z</time>
</trkpt>
<trkpt lat="49.10842159513339" lon="8.258997411159344">
<ele>126.43452563476559</ele>
<time>2016-07-30T17:23:59Z</time>
</trkpt>
<trkpt lat="49.10833159513339" lon="8.259132411159344">
<ele>126.40452563476559</ele>
<time>2016-07-30T17:24:02Z</time>
</trkpt>
<trkpt lat="49.10823859513339" lon="8.259355411159344">
<ele>126.21652563476559</ele>
<time>2016-07-30T17:24:05Z</time>
</trkpt>
<trkpt lat="49.10839459513339" lon="8.259677411159345">
<ele>125.90852563476558</ele>
<time>2016-07-30T17:24:11Z</time>
</trkpt>
<trkpt lat="49.10854259513339" lon="8.260027411159344">
<ele>125.71952563476559</ele>
<time>2016-07-30T17:24:16Z</time>
</trkpt>
<trkpt lat="49.108938595133395" lon="8.260839411159344">
<ele>125.40452563476559</ele>
<time>2016-07-30T17:24:31Z</time>
</trkpt>
<trkpt lat="49.1090195951334" lon="8.261232411159344">
<ele>125.21352563476559</ele>
<time>2016-07-30T17:24:36Z</time>
</trkpt>
<trkpt lat="49.1093425951334" lon="8.261958411159345">
<ele>124.40152563476559</ele>
<time>2016-07-30T17:24:47Z</time>
</trkpt>
<trkpt lat="49.1096485951334" lon="8.262645411159344">
<ele>123.37652563476558</ele>
<time>2016-07-30T17:24:58Z</time>
</trkpt>
<trkpt lat="49.1109875951334" lon="8.265379411159344">
<ele>116.76852563476558</ele>
<time>2016-07-30T17:25:36Z</time>
</trkpt>
<trkpt lat="49.1111445951334" lon="8.265661411159344">
<ele>116.05352563476558</ele>
<time>2016-07-30T17:25:41Z</time>
</trkpt>
<trkpt lat="49.1111985951334" lon="8.265769411159345">
<ele>115.79052563476557</ele>
<time>2016-07-30T17:25:42Z</time>
</trkpt>
<trkpt lat="49.1112475951334" lon="8.265894411159346">
<ele>115.51152563476558</ele>
<time>2016-07-30T17:25:44Z</time>
</trkpt>
<trkpt lat="49.1113825951334" lon="8.266125411159345">
<ele>115.04352563476557</ele>
<time>2016-07-30T17:25:47Z</time>
</trkpt>
<trkpt lat="49.1114355951334" lon="8.266199411159345">
<ele>114.83852563476557</ele>
<time>2016-07-30T17:25:49Z</time>
</trkpt>
<trkpt lat="49.1116895951334" lon="8.266694411159346">
<ele>114.06452563476557</ele>
<time>2016-07-30T17:25:56Z</time>
</trkpt>
<trkpt lat="49.111752595133396" lon="8.266790411159345">
<ele>113.87752563476558</ele>
<time>2016-07-30T17:25:58Z</time>
</trkpt>
<trkpt lat="49.1123065951334" lon="8.267797411159345">
<ele>113.03952563476558</ele>
<time>2016-07-30T17:26:15Z</time>
</trkpt>
<trkpt lat="49.112313595133394" lon="8.267897411159344">
<ele>112.97852563476557</ele>
<time>2016-07-30T17:26:17Z</time>
</trkpt>
<trkpt lat="49.11241259513339" lon="8.268085411159344">
<ele>112.96652563476557</ele>
<time>2016-07-30T17:26:20Z</time>
</trkpt>
<trkpt lat="49.11268359513339" lon="8.268598411159344">
<ele>113.08852563476557</ele>
<time>2016-07-30T17:26:31Z</time>
</trkpt>
<trkpt lat="49.11296159513339" lon="8.269128411159343">
<ele>113.27952563476558</ele>
<time>2016-07-30T17:26:42Z</time>
</trkpt>
<trkpt lat="49.11342559513339" lon="8.270020411159344">
<ele>113.46952563476557</ele>
<time>2016-07-30T17:27:00Z</time>
</trkpt>
<trkpt lat="49.11443859513339" lon="8.271988411159343">
<ele>113.11852563476558</ele>
<time>2016-07-30T17:27:37Z</time>
</trkpt>
<trkpt lat="49.11449059513339" lon="8.272263411159344">
<ele>113.05152563476558</ele>
<time>2016-07-30T17:27:41Z</time>
</trkpt>
<trkpt lat="49.11497459513339" lon="8.273121411159343">
<ele>112.73552563476558</ele>
<time>2016-07-30T17:27:57Z</time>
</trkpt>
<trkpt lat="49.11512059513339" lon="8.273078411159343">
<ele>112.69952563476558</ele>
<time>2016-07-30T17:28:00Z</time>
</trkpt>
<trkpt lat="49.11520959513339" lon="8.273251411159343">
<ele>112.64052563476558</ele>
<time>2016-07-30T17:28:03Z</time>
</trkpt>
<trkpt lat="49.115242595133395" lon="8.273313411159343">
<ele>112.62352563476558</ele>
<time>2016-07-30T17:28:04Z</time>
</trkpt>
<trkpt lat="49.115262595133395" lon="8.273352411159342">
<ele>112.62052563476558</ele>
<time>2016-07-30T17:28:05Z</time>
</trkpt>
<trkpt lat="49.11568859513339" lon="8.274180411159342">
<ele>112.46552563476558</ele>
<time>2016-07-30T17:28:20Z</time>
</trkpt>
<trkpt lat="49.11582459513339" lon="8.274448411159343">
<ele>112.44752563476558</ele>
<time>2016-07-30T17:28:25Z</time>
</trkpt>
<trkpt lat="49.11606459513339" lon="8.274897411159342">
<ele>112.45352563476558</ele>
<time>2016-07-30T17:28:33Z</time>
</trkpt>
<trkpt lat="49.116625595133385" lon="8.276006411159342">
<ele>112.45952563476558</ele>
<time>2016-07-30T17:28:54Z</time>
</trkpt>
<trkpt lat="49.11703859513339" lon="8.276701411159342">
<ele>112.76252563476558</ele>
<time>2016-07-30T17:29:09Z</time>
</trkpt>
<trkpt lat="49.11750459513339" lon="8.277484411159342">
<ele>113.03852563476558</ele>
<time>2016-07-30T17:29:25Z</time>
</trkpt>
<trkpt lat="49.11775259513339" lon="8.277906411159343">
<ele>113.23352563476557</ele>
<time>2016-07-30T17:29:34Z</time>
</trkpt>
<trkpt lat="49.11793359513339" lon="8.278423411159343">
<ele>113.51052563476557</ele>
<time>2016-07-30T17:29:44Z</time>
</trkpt>
<trkpt lat="49.11803459513339" lon="8.278319411159343">
<ele>113.57252563476557</ele>
<time>2016-07-30T17:29:47Z</time>
</trkpt>
<trkpt lat="49.118156595133385" lon="8.278247411159343">
<ele>113.67352563476557</ele>
<time>2016-07-30T17:29:50Z</time>
</trkpt>
<trkpt lat="49.11832159513339" lon="8.278249411159344">
<ele>113.79752563476556</ele>
<time>2016-07-30T17:29:54Z</time>
</trkpt>
<trkpt lat="49.118778595133385" lon="8.278354411159343">
<ele>114.33352563476556</ele>
<time>2016-07-30T17:30:07Z</time>
</trkpt>
<trkpt lat="49.11888359513338" lon="8.278374411159342">
<ele>114.50052563476557</ele>
<time>2016-07-30T17:30:10Z</time>
</trkpt>
<trkpt lat="49.119037595133385" lon="8.278392411159343">
<ele>114.71252563476557</ele>
<time>2016-07-30T17:30:14Z</time>
</trkpt>
<trkpt lat="49.11914359513339" lon="8.278365411159344">
<ele>114.87452563476558</ele>
<time>2016-07-30T17:30:17Z</time>
</trkpt>
<trkpt lat="49.11919359513339" lon="8.278303411159344">
<ele>114.99652563476558</ele>
<time>2016-07-30T17:30:19Z</time>
</trkpt>
<trkpt lat="49.11945159513339" lon="8.277651411159344">
<ele>115.49052563476558</ele>
<time>2016-07-30T17:30:32Z</time>
</trkpt>
<trkpt lat="49.11950559513339" lon="8.277614411159343">
<ele>115.55852563476557</ele>
<time>2016-07-30T17:30:34Z</time>
</trkpt>
<trkpt lat="49.11954859513339" lon="8.277603411159342">
<ele>115.61652563476558</ele>
<time>2016-07-30T17:30:35Z</time>
</trkpt>
<trkpt lat="49.11958459513339" lon="8.277609411159343">
<ele>115.64252563476558</ele>
<time>2016-07-30T17:30:36Z</time>
</trkpt>
<trkpt lat="49.11966659513339" lon="8.277634411159344">
<ele>115.75452563476557</ele>
<time>2016-07-30T17:30:38Z</time>
</trkpt>
<trkpt lat="49.11980159513339" lon="8.277660411159344">
<ele>115.78952563476557</ele>
<time>2016-07-30T17:30:41Z</time>
</trkpt>
<trkpt lat="49.12019159513339" lon="8.277748411159344">
<ele>115.96052563476557</ele>
<time>2016-07-30T17:30:51Z</time>
</trkpt>
<trkpt lat="49.12038959513339" lon="8.277812411159344">
<ele>116.05152563476557</ele>
<time>2016-07-30T17:30:56Z</time>
</trkpt>
<trkpt lat="49.12070459513339" lon="8.277933411159344">
<ele>115.98552563476557</ele>
<time>2016-07-30T17:31:03Z</time>
</trkpt>
<trkpt lat="49.12104459513339" lon="8.278106411159344">
<ele>115.90152563476556</ele>
<time>2016-07-30T17:31:10Z</time>
</trkpt>
<trkpt lat="49.12130259513339" lon="8.278277411159344">
<ele>115.74452563476557</ele>
<time>2016-07-30T17:31:16Z</time>
</trkpt>
<trkpt lat="49.12155159513339" lon="8.278617411159344">
<ele>115.41752563476557</ele>
<time>2016-07-30T17:31:22Z</time>
</trkpt>
<trkpt lat="49.12190959513339" lon="8.279067411159344">
<ele>114.77952563476556</ele>
<time>2016-07-30T17:31:31Z</time>
</trkpt>
<trkpt lat="49.12219459513339" lon="8.279417411159343">
<ele>114.31652563476557</ele>
<time>2016-07-30T17:31:38Z</time>
</trkpt>
<trkpt lat="49.12248959513339" lon="8.279699411159344">
<ele>113.91052563476556</ele>
<time>2016-07-30T17:31:45Z</time>
</trkpt>
<trkpt lat="49.12265259513339" lon="8.279851411159344">
<ele>113.71352563476556</ele>
<time>2016-07-30T17:31:48Z</time>
</trkpt>
<trkpt lat="49.122777595133385" lon="8.279518411159344">
<ele>113.59152563476556</ele>
<time>2016-07-30T17:31:54Z</time>
</trkpt>
<trkpt lat="49.12281859513339" lon="8.279546411159345">
<ele>113.53452563476556</ele>
<time>2016-07-30T17:31:55Z</time>
</trkpt>
<trkpt lat="49.12287259513339" lon="8.279639411159344">
<ele>113.50252563476556</ele>
<time>2016-07-30T17:31:56Z</time>
</trkpt>
<trkpt lat="49.12287259513339" lon="8.279912411159344">
<ele>113.45352563476555</ele>
<time>2016-07-30T17:32:00Z</time>
</trkpt>
<trkpt lat="49.123098595133385" lon="8.280087411159345">
<ele>113.34152563476556</ele>
<time>2016-07-30T17:32:06Z</time>
</trkpt>
<trkpt lat="49.12317659513339" lon="8.280087411159345">
<ele>113.33252563476556</ele>
<time>2016-07-30T17:32:08Z</time>
</trkpt>
<trkpt lat="49.12328359513339" lon="8.280216411159344">
<ele>113.24652563476556</ele>
<time>2016-07-30T17:32:10Z</time>
</trkpt>
<trkpt lat="49.123441595133386" lon="8.280324411159345">
<ele>113.26252563476557</ele>
<time>2016-07-30T17:32:14Z</time>
</trkpt>
<trkpt lat="49.12391059513339" lon="8.280593411159344">
<ele>113.05952563476556</ele>
<time>2016-07-30T17:32:25Z</time>
</trkpt>
<trkpt lat="49.124606595133386" lon="8.281151411159344">
<ele>112.83352563476556</ele>
<time>2016-07-30T17:32:43Z</time>
</trkpt>
<trkpt lat="49.12464559513339" lon="8.281161411159344">
<ele>112.89052563476557</ele>
<time>2016-07-30T17:32:44Z</time>
</trkpt>
<trkpt lat="49.124680595133384" lon="8.281184411159344">
<ele>112.86452563476557</ele>
<time>2016-07-30T17:32:45Z</time>
</trkpt>
<trkpt lat="49.125012595133384" lon="8.281418411159345">
<ele>112.71152563476556</ele>
<time>2016-07-30T17:32:53Z</time>
</trkpt>
<trkpt lat="49.125051595133385" lon="8.281462411159346">
<ele>112.67852563476556</ele>
<time>2016-07-30T17:32:54Z</time>
</trkpt>
<trkpt lat="49.12511859513339" lon="8.281522411159346">
<ele>112.56252563476556</ele>
<time>2016-07-30T17:32:55Z</time>
</trkpt>
<trkpt lat="49.125929595133385" lon="8.282066411159345">
<ele>112.08452563476557</ele>
<time>2016-07-30T17:33:14Z</time>
</trkpt>
<trkpt lat="49.126984595133386" lon="8.282521411159346">
<ele>111.41552563476557</ele>
<time>2016-07-30T17:33:37Z</time>
</trkpt>
<trkpt lat="49.12736859513338" lon="8.282796411159346">
<ele>111.33452563476557</ele>
<time>2016-07-30T17:33:47Z</time>
</trkpt>
<trkpt lat="49.12765059513338" lon="8.283061411159347">
<ele>111.31152563476557</ele>
<time>2016-07-30T17:33:54Z</time>
</trkpt>
<trkpt lat="49.12798759513338" lon="8.283442411159347">
<ele>111.31052563476557</ele>
<time>2016-07-30T17:34:04Z</time>
</trkpt>
<trkpt lat="49.128051595133385" lon="8.283529411159348">
<ele>111.34552563476556</ele>
<time>2016-07-30T17:34:06Z</time>
</trkpt>
<trkpt lat="49.128181595133384" lon="8.283749411159349">
<ele>111.34152563476556</ele>
<time>2016-07-30T17:34:11Z</time>
</trkpt>
<trkpt lat="49.12840159513338" lon="8.28399541115935">
<ele>111.39352563476557</ele>
<time>2016-07-30T17:34:17Z</time>
</trkpt>
<trkpt lat="49.12877559513338" lon="8.284330411159349">
<ele>111.45752563476556</ele>
<time>2016-07-30T17:34:28Z</time>
</trkpt>
<trkpt lat="49.12983459513338" lon="8.284884411159348">
<ele>111.50952563476557</ele>
<time>2016-07-30T17:34:54Z</time>
</trkpt>
<trkpt lat="49.13036159513338" lon="8.285109411159349">
<ele>111.53652563476557</ele>
<time>2016-07-30T17:35:07Z</time>
</trkpt>
<trkpt lat="49.13042359513338" lon="8.285131411159348">
<ele>111.52252563476557</ele>
<time>2016-07-30T17:35:08Z</time>
</trkpt>
<trkpt lat="49.13051659513338" lon="8.285204411159349">
<ele>111.52852563476557</ele>
<time>2016-07-30T17:35:10Z</time>
</trkpt>
<trkpt lat="49.13074759513338" lon="8.285361411159348">
<ele>111.56752563476557</ele>
<time>2016-07-30T17:35:16Z</time>
</trkpt>
<trkpt lat="49.13200259513338" lon="8.285955411159348">
<ele>112.18652563476557</ele>
<time>2016-07-30T17:35:49Z</time>
</trkpt>
<trkpt lat="49.13244959513338" lon="8.286161411159348">
<ele>112.49052563476558</ele>
<time>2016-07-30T17:36:01Z</time>
</trkpt>
<trkpt lat="49.13289059513338" lon="8.286404411159348">
<ele>112.77852563476557</ele>
<time>2016-07-30T17:36:13Z</time>
</trkpt>
<trkpt lat="49.13396259513338" lon="8.287094411159348">
<ele>113.39352563476557</ele>
<time>2016-07-30T17:36:43Z</time>
</trkpt>
<trkpt lat="49.13465259513338" lon="8.287569411159348">
<ele>113.60352563476556</ele>
<time>2016-07-30T17:37:01Z</time>
</trkpt>
<trkpt lat="49.135692595133385" lon="8.288432411159349">
<ele>114.02952563476556</ele>
<time>2016-07-30T17:37:30Z</time>
</trkpt>
<trkpt lat="49.136466595133385" lon="8.288876411159348">
<ele>114.35952563476556</ele>
<time>2016-07-30T17:37:51Z</time>
</trkpt>
<trkpt lat="49.13712859513338" lon="8.289179411159349">
<ele>114.58952563476556</ele>
<time>2016-07-30T17:38:08Z</time>
</trkpt>
<trkpt lat="49.13862059513338" lon="8.28977241115935">
<ele>114.41052563476556</ele>
<time>2016-07-30T17:38:43Z</time>
</trkpt>
<trkpt lat="49.13937759513338" lon="8.29009641115935">
<ele>114.02052563476556</ele>
<time>2016-07-30T17:39:00Z</time>
</trkpt>
<trkpt lat="49.13961159513338" lon="8.29016641115935">
<ele>113.96452563476556</ele>
<time>2016-07-30T17:39:05Z</time>
</trkpt>
<trkpt lat="49.14045059513338" lon="8.290492411159349">
<ele>113.90752563476556</ele>
<time>2016-07-30T17:39:25Z</time>
</trkpt>
<trkpt lat="49.14209759513338" lon="8.29094241115935">
<ele>113.79752563476556</ele>
<time>2016-07-30T17:40:03Z</time>
</trkpt>
<trkpt lat="49.14286359513338" lon="8.291147411159349">
<ele>113.77952563476556</ele>
<time>2016-07-30T17:40:21Z</time>
</trkpt>
<trkpt lat="49.14307759513338" lon="8.29119441115935">
<ele>113.73652563476556</ele>
<time>2016-07-30T17:40:26Z</time>
</trkpt>
<trkpt lat="49.14403459513338" lon="8.291342411159349">
<ele>113.65852563476555</ele>
<time>2016-07-30T17:40:48Z</time>
</trkpt>
<trkpt lat="49.14616659513338" lon="8.29171641115935">
<ele>115.05252563476556</ele>
<time>2016-07-30T17:41:43Z</time>
</trkpt>
<trkpt lat="49.14769459513338" lon="8.291904411159349">
<ele>114.43252563476555</ele>
<time>2016-07-30T17:42:17Z</time>
</trkpt>
<trkpt lat="49.14812959513338" lon="8.29199641115935">
<ele>113.96952563476556</ele>
<time>2016-07-30T17:42:25Z</time>
</trkpt>
<trkpt lat="49.148340595133384" lon="8.29196341115935">
<ele>113.75652563476557</ele>
<time>2016-07-30T17:42:30Z</time>
</trkpt>
<trkpt lat="49.148418595133386" lon="8.291968411159349">
<ele>113.64852563476556</ele>
<time>2016-07-30T17:42:31Z</time>
</trkpt>
<trkpt lat="49.14897259513339" lon="8.292023411159349">
<ele>113.07752563476556</ele>
<time>2016-07-30T17:42:42Z</time>
</trkpt>
<trkpt lat="49.14915259513339" lon="8.292047411159349">
<ele>112.88352563476556</ele>
<time>2016-07-30T17:42:46Z</time>
</trkpt>
<trkpt lat="49.14927359513339" lon="8.292111411159349">
<ele>112.75252563476556</ele>
<time>2016-07-30T17:42:49Z</time>
</trkpt>
<trkpt lat="49.14974859513339" lon="8.292192411159348">
<ele>112.34052563476556</ele>
<time>2016-07-30T17:42:58Z</time>
</trkpt>
<trkpt lat="49.14996859513339" lon="8.292224411159347">
<ele>112.16352563476555</ele>
<time>2016-07-30T17:43:03Z</time>
</trkpt>
<trkpt lat="49.15053459513339" lon="8.292339411159347">
<ele>111.94652563476555</ele>
<time>2016-07-30T17:43:15Z</time>
</trkpt>
<trkpt lat="49.150751595133386" lon="8.292348411159347">
<ele>111.88152563476555</ele>
<time>2016-07-30T17:43:20Z</time>
</trkpt>
<trkpt lat="49.15078959513339" lon="8.292350411159347">
<ele>111.87752563476555</ele>
<time>2016-07-30T17:43:21Z</time>
</trkpt>
<trkpt lat="49.15101659513339" lon="8.292397411159348">
<ele>111.85852563476554</ele>
<time>2016-07-30T17:43:26Z</time>
</trkpt>
<trkpt lat="49.15180459513339" lon="8.292504411159348">
<ele>111.86052563476554</ele>
<time>2016-07-30T17:43:44Z</time>
</trkpt>
<trkpt lat="49.152062595133394" lon="8.292539411159348">
<ele>111.88552563476554</ele>
<time>2016-07-30T17:43:50Z</time>
</trkpt>
<trkpt lat="49.15222359513339" lon="8.292577411159348">
<ele>111.88552563476554</ele>
<time>2016-07-30T17:43:53Z</time>
</trkpt>
<trkpt lat="49.15233659513339" lon="8.292643411159348">
<ele>111.90252563476554</ele>
<time>2016-07-30T17:43:56Z</time>
</trkpt>
<trkpt lat="49.15246459513339" lon="8.292769411159348">
<ele>111.91452563476554</ele>
<time>2016-07-30T17:43:59Z</time>
</trkpt>
<trkpt lat="49.15256059513339" lon="8.292810411159348">
<ele>111.92152563476554</ele>
<time>2016-07-30T17:44:02Z</time>
</trkpt>
<trkpt lat="49.15261559513339" lon="8.292843411159348">
<ele>111.92752563476554</ele>
<time>2016-07-30T17:44:03Z</time>
</trkpt>
<trkpt lat="49.15277659513339" lon="8.292912411159348">
<ele>111.94352563476555</ele>
<time>2016-07-30T17:44:07Z</time>
</trkpt>
<trkpt lat="49.15277059513339" lon="8.292956411159349">
<ele>111.94252563476554</ele>
<time>2016-07-30T17:44:07Z</time>
</trkpt>
<trkpt lat="49.15279659513339" lon="8.293049411159348">
<ele>111.94452563476554</ele>
<time>2016-07-30T17:44:09Z</time>
</trkpt>
<trkpt lat="49.152825595133386" lon="8.293074411159349">
<ele>111.94752563476554</ele>
<time>2016-07-30T17:44:10Z</time>
</trkpt>
<trkpt lat="49.152862595133385" lon="8.293079411159349">
<ele>111.95052563476554</ele>
<time>2016-07-30T17:44:10Z</time>
</trkpt>
<trkpt lat="49.15291459513338" lon="8.29303141115935">
<ele>111.95752563476555</ele>
<time>2016-07-30T17:44:12Z</time>
</trkpt>
<trkpt lat="49.15292559513338" lon="8.29299741115935">
<ele>111.96052563476555</ele>
<time>2016-07-30T17:44:12Z</time>
</trkpt>
<trkpt lat="49.15437859513338" lon="8.29372641115935">
<ele>112.49352563476555</ele>
<time>2016-07-30T17:44:49Z</time>
</trkpt>
<trkpt lat="49.15443759513338" lon="8.29374741115935">
<ele>112.52652563476555</ele>
<time>2016-07-30T17:44:50Z</time>
</trkpt>
<trkpt lat="49.15454159513338" lon="8.29376741115935">
<ele>112.57152563476555</ele>
<time>2016-07-30T17:44:53Z</time>
</trkpt>
<trkpt lat="49.15463959513338" lon="8.293777411159349">
<ele>112.59652563476556</ele>
<time>2016-07-30T17:44:55Z</time>
</trkpt>
<trkpt lat="49.154700595133384" lon="8.293770411159349">
<ele>112.63552563476556</ele>
<time>2016-07-30T17:44:56Z</time>
</trkpt>
<trkpt lat="49.15473559513338" lon="8.293832411159348">
<ele>112.70752563476556</ele>
<time>2016-07-30T17:44:58Z</time>
</trkpt>
<trkpt lat="49.154872595133384" lon="8.293975411159348">
<ele>112.74152563476557</ele>
<time>2016-07-30T17:45:02Z</time>
</trkpt>
<trkpt lat="49.155685595133384" lon="8.294223411159347">
<ele>112.96952563476556</ele>
<time>2016-07-30T17:45:22Z</time>
</trkpt>
<trkpt lat="49.156158595133384" lon="8.294275411159347">
<ele>113.11752563476556</ele>
<time>2016-07-30T17:45:34Z</time>
</trkpt>
<trkpt lat="49.15626059513338" lon="8.294287411159347">
<ele>113.07252563476555</ele>
<time>2016-07-30T17:45:36Z</time>
</trkpt>
<trkpt lat="49.15649459513338" lon="8.294318411159347">
<ele>113.07152563476555</ele>
<time>2016-07-30T17:45:41Z</time>
</trkpt>
<trkpt lat="49.15654759513338" lon="8.294301411159347">
<ele>113.03652563476555</ele>
<time>2016-07-30T17:45:42Z</time>
</trkpt>
<trkpt lat="49.157283595133386" lon="8.294241411159348">
<ele>112.78252563476555</ele>
<time>2016-07-30T17:45:59Z</time>
</trkpt>
<trkpt lat="49.157314595133386" lon="8.294244411159347">
<ele>112.75052563476555</ele>
<time>2016-07-30T17:45:59Z</time>
</trkpt>
<trkpt lat="49.15738459513339" lon="8.294291411159348">
<ele>112.73152563476555</ele>
<time>2016-07-30T17:46:01Z</time>
</trkpt>
<trkpt lat="49.15938759513339" lon="8.294848411159348">
<ele>110.94152563476554</ele>
<time>2016-07-30T17:46:43Z</time>
</trkpt>
<trkpt lat="49.159878595133385" lon="8.294952411159349">
<ele>110.29952563476554</ele>
<time>2016-07-30T17:46:52Z</time>
</trkpt>
<trkpt lat="49.160376595133386" lon="8.29506041115935">
<ele>109.78852563476555</ele>
<time>2016-07-30T17:47:02Z</time>
</trkpt>
<trkpt lat="49.160674595133386" lon="8.29506741115935">
<ele>109.51652563476554</ele>
<time>2016-07-30T17:47:08Z</time>
</trkpt>
<trkpt lat="49.16097459513339" lon="8.295044411159349">
<ele>109.28652563476554</ele>
<time>2016-07-30T17:47:15Z</time>
</trkpt>
<trkpt lat="49.16102859513339" lon="8.295101411159349">
<ele>109.22952563476554</ele>
<time>2016-07-30T17:47:16Z</time>
</trkpt>
<trkpt lat="49.16113259513339" lon="8.29542141115935">
<ele>109.08552563476553</ele>
<time>2016-07-30T17:47:21Z</time>
</trkpt>
<trkpt lat="49.16125859513339" lon="8.295704411159349">
<ele>109.02552563476553</ele>
<time>2016-07-30T17:47:26Z</time>
</trkpt>
<trkpt lat="49.16139559513339" lon="8.29616441115935">
<ele>108.95852563476554</ele>
<time>2016-07-30T17:47:33Z</time>
</trkpt>
<trkpt lat="49.16189659513339" lon="8.29807941115935">
<ele>108.83352563476554</ele>
<time>2016-07-30T17:48:04Z</time>
</trkpt>
<trkpt lat="49.16213959513339" lon="8.29901741115935">
<ele>108.78752563476553</ele>
<time>2016-07-30T17:48:19Z</time>
</trkpt>
<trkpt lat="49.16224459513339" lon="8.29949641115935">
<ele>108.80452563476553</ele>
<time>2016-07-30T17:48:27Z</time>
</trkpt>
<trkpt lat="49.162369595133384" lon="8.30007241115935">
<ele>108.81052563476553</ele>
<time>2016-07-30T17:48:36Z</time>
</trkpt>
<trkpt lat="49.162453595133385" lon="8.30045741115935">
<ele>108.82852563476553</ele>
<time>2016-07-30T17:48:43Z</time>
</trkpt>
<trkpt lat="49.16255959513339" lon="8.30126841115935">
<ele>108.88452563476552</ele>
<time>2016-07-30T17:48:55Z</time>
</trkpt>
<trkpt lat="49.16253459513339" lon="8.30179241115935">
<ele>108.97252563476552</ele>
<time>2016-07-30T17:49:04Z</time>
</trkpt>
<trkpt lat="49.16257359513339" lon="8.30228141115935">
<ele>109.06052563476551</ele>
<time>2016-07-30T17:49:12Z</time>
</trkpt>
<trkpt lat="49.16261859513339" lon="8.30238641115935">
<ele>109.10952563476552</ele>
<time>2016-07-30T17:49:14Z</time>
</trkpt>
<trkpt lat="49.16288859513339" lon="8.302881411159351">
<ele>109.23252563476552</ele>
<time>2016-07-30T17:49:24Z</time>
</trkpt>
<trkpt lat="49.16300159513339" lon="8.303241411159352">
<ele>109.25852563476552</ele>
<time>2016-07-30T17:49:30Z</time>
</trkpt>
<trkpt lat="49.16301759513339" lon="8.303336411159352">
<ele>109.28752563476552</ele>
<time>2016-07-30T17:49:32Z</time>
</trkpt>
<trkpt lat="49.16304359513339" lon="8.303470411159351">
<ele>109.28452563476552</ele>
<time>2016-07-30T17:49:34Z</time>
</trkpt>
<trkpt lat="49.16329059513339" lon="8.30480241115935">
<ele>109.22752563476551</ele>
<time>2016-07-30T17:49:55Z</time>
</trkpt>
<trkpt lat="49.16339159513339" lon="8.30551541115935">
<ele>109.18652563476552</ele>
<time>2016-07-30T17:50:06Z</time>
</trkpt>
<trkpt lat="49.16347559513339" lon="8.30628741115935">
<ele>109.10052563476552</ele>
<time>2016-07-30T17:50:17Z</time>
</trkpt>
<trkpt lat="49.16362259513339" lon="8.30853041115935">
<ele>108.80352563476552</ele>
<time>2016-07-30T17:50:50Z</time>
</trkpt>
<trkpt lat="49.16369259513339" lon="8.309295411159349">
<ele>108.48952563476553</ele>
<time>2016-07-30T17:51:01Z</time>
</trkpt>
<trkpt lat="49.16379059513339" lon="8.310356411159349">
<ele>107.92652563476553</ele>
<time>2016-07-30T17:51:15Z</time>
</trkpt>
<trkpt lat="49.16387859513339" lon="8.31136241115935">
<ele>107.28252563476552</ele>
<time>2016-07-30T17:51:29Z</time>
</trkpt>
<trkpt lat="49.16405059513339" lon="8.313639411159349">
<ele>106.33952563476552</ele>
<time>2016-07-30T17:52:01Z</time>
</trkpt>
<trkpt lat="49.16411959513339" lon="8.314164411159348">
<ele>106.34052563476553</ele>
<time>2016-07-30T17:52:09Z</time>
</trkpt>
<trkpt lat="49.164127595133394" lon="8.314249411159349">
<ele>106.34652563476553</ele>
<time>2016-07-30T17:52:10Z</time>
</trkpt>
<trkpt lat="49.16414859513339" lon="8.314427411159349">
<ele>106.39952563476552</ele>
<time>2016-07-30T17:52:13Z</time>
</trkpt>
<trkpt lat="49.16443559513339" lon="8.316505411159348">
<ele>106.74152563476552</ele>
<time>2016-07-30T17:52:47Z</time>
</trkpt>
<trkpt lat="49.16470759513339" lon="8.318749411159347">
<ele>107.36352563476552</ele>
<time>2016-07-30T17:53:24Z</time>
</trkpt>
<trkpt lat="49.164734595133396" lon="8.318930411159347">
<ele>107.42552563476552</ele>
<time>2016-07-30T17:53:27Z</time>
</trkpt>
<trkpt lat="49.1649955951334" lon="8.320723411159346">
<ele>108.16752563476552</ele>
<time>2016-07-30T17:53:57Z</time>
</trkpt>
<trkpt lat="49.1651015951334" lon="8.321698411159346">
<ele>108.37152563476552</ele>
<time>2016-07-30T17:54:12Z</time>
</trkpt>
<trkpt lat="49.1651515951334" lon="8.322351411159346">
<ele>108.43652563476552</ele>
<time>2016-07-30T17:54:22Z</time>
</trkpt>
<trkpt lat="49.1651525951334" lon="8.323343411159346">
<ele>108.41252563476552</ele>
<time>2016-07-30T17:54:36Z</time>
</trkpt>
<trkpt lat="49.1652005951334" lon="8.323475411159347">
<ele>108.52952563476552</ele>
<time>2016-07-30T17:54:39Z</time>
</trkpt>
<trkpt lat="49.1655275951334" lon="8.324404411159346">
<ele>108.80052563476552</ele>
<time>2016-07-30T17:54:55Z</time>
</trkpt>
<trkpt lat="49.1658695951334" lon="8.325182411159346">
<ele>109.02252563476551</ele>
<time>2016-07-30T17:55:10Z</time>
</trkpt>
<trkpt lat="49.1658975951334" lon="8.325248411159347">
<ele>109.06252563476552</ele>
<time>2016-07-30T17:55:11Z</time>
</trkpt>
<trkpt lat="49.1659435951334" lon="8.325337411159346">
<ele>109.16852563476552</ele>
<time>2016-07-30T17:55:13Z</time>
</trkpt>
<trkpt lat="49.1661875951334" lon="8.325823411159346">
<ele>109.39452563476551</ele>
<time>2016-07-30T17:55:23Z</time>
</trkpt>
<trkpt lat="49.1662165951334" lon="8.325903411159347">
<ele>109.49752563476551</ele>
<time>2016-07-30T17:55:25Z</time>
</trkpt>
<trkpt lat="49.1662585951334" lon="8.325849411159346">
<ele>109.4575256347655</ele>
<time>2016-07-30T17:55:26Z</time>
</trkpt>
<trkpt lat="49.1671385951334" lon="8.325082411159347">
<ele>110.1915256347655</ele>
<time>2016-07-30T17:55:51Z</time>
</trkpt>
<trkpt lat="49.1671665951334" lon="8.325068411159346">
<ele>110.17852563476549</ele>
<time>2016-07-30T17:55:52Z</time>
</trkpt>
<trkpt lat="49.1671875951334" lon="8.325068411159346">
<ele>110.16652563476549</ele>
<time>2016-07-30T17:55:52Z</time>
</trkpt>
<trkpt lat="49.1673695951334" lon="8.325366411159347">
<ele>110.18752563476549</ele>
<time>2016-07-30T17:55:59Z</time>
</trkpt>
<trkpt lat="49.167604595133405" lon="8.325901411159347">
<ele>110.25452563476549</ele>
<time>2016-07-30T17:56:08Z</time>
</trkpt>
<trkpt lat="49.167649595133405" lon="8.326019411159347">
<ele>110.23252563476548</ele>
<time>2016-07-30T17:56:10Z</time>
</trkpt>
<trkpt lat="49.1676845951334" lon="8.326100411159347">
<ele>110.24952563476548</ele>
<time>2016-07-30T17:56:12Z</time>
</trkpt>
<trkpt lat="49.1684005951334" lon="8.327183411159346">
<ele>110.33552563476547</ele>
<time>2016-07-30T17:56:34Z</time>
</trkpt>
<trkpt lat="49.1685895951334" lon="8.327467411159347">
<ele>110.40552563476547</ele>
<time>2016-07-30T17:56:41Z</time>
</trkpt>
<trkpt lat="49.1687605951334" lon="8.327721411159347">
<ele>110.44452563476547</ele>
<time>2016-07-30T17:56:46Z</time>
</trkpt>
<trkpt lat="49.1696255951334" lon="8.328928411159348">
<ele>110.22252563476547</ele>
<time>2016-07-30T17:57:11Z</time>
</trkpt>
<trkpt lat="49.169749595133396" lon="8.329252411159349">
<ele>109.87352563476547</ele>
<time>2016-07-30T17:57:16Z</time>
</trkpt>
<trkpt lat="49.1697655951334" lon="8.32937241115935">
<ele>109.73852563476547</ele>
<time>2016-07-30T17:57:17Z</time>
</trkpt>
<trkpt lat="49.1697765951334" lon="8.329610411159349">
<ele>109.47052563476547</ele>
<time>2016-07-30T17:57:20Z</time>
</trkpt>
<trkpt lat="49.1698035951334" lon="8.330223411159349">
<ele>108.59252563476547</ele>
<time>2016-07-30T17:57:27Z</time>
</trkpt>
<trkpt lat="49.1698935951334" lon="8.332058411159348">
<ele>104.99852563476547</ele>
<time>2016-07-30T17:57:47Z</time>
</trkpt>
<trkpt lat="49.1699475951334" lon="8.332402411159348">
<ele>104.19952563476546</ele>
<time>2016-07-30T17:57:51Z</time>
</trkpt>
<trkpt lat="49.1700695951334" lon="8.332841411159349">
<ele>103.01652563476546</ele>
<time>2016-07-30T17:57:56Z</time>
</trkpt>
<trkpt lat="49.1703985951334" lon="8.333637411159348">
<ele>101.16252563476546</ele>
<time>2016-07-30T17:58:06Z</time>
</trkpt>
<trkpt lat="49.170554595133396" lon="8.333926411159348">
<ele>100.53852563476546</ele>
<time>2016-07-30T17:58:10Z</time>
</trkpt>
<trkpt lat="49.1706295951334" lon="8.333850411159348">
<ele>100.39252563476546</ele>
<time>2016-07-30T17:58:12Z</time>
</trkpt>
<trkpt lat="49.1707005951334" lon="8.333969411159348">
<ele>100.16752563476547</ele>
<time>2016-07-30T17:58:14Z</time>
</trkpt>
<trkpt lat="49.1707985951334" lon="8.334048411159348">
<ele>99.98752563476546</ele>
<time>2016-07-30T17:58:16Z</time>
</trkpt>
<trkpt lat="49.1708705951334" lon="8.334111411159348">
<ele>99.85352563476546</ele>
<time>2016-07-30T17:58:18Z</time>
</trkpt>
<trkpt lat="49.1710245951334" lon="8.334369411159349">
<ele>99.52952563476546</ele>
<time>2016-07-30T17:58:22Z</time>
</trkpt>
<trkpt lat="49.1717405951334" lon="8.33496441115935">
<ele>98.85952563476546</ele>
<time>2016-07-30T17:58:39Z</time>
</trkpt>
<trkpt lat="49.1718745951334" lon="8.33507141115935">
<ele>98.83752563476546</ele>
<time>2016-07-30T17:58:42Z</time>
</trkpt>
<trkpt lat="49.172177595133405" lon="8.33528741115935">
<ele>98.82552563476546</ele>
<time>2016-07-30T17:58:50Z</time>
</trkpt>
<trkpt lat="49.1727105951334" lon="8.335779411159349">
<ele>99.03852563476545</ele>
<time>2016-07-30T17:59:05Z</time>
</trkpt>
<trkpt lat="49.1729425951334" lon="8.336067411159348">
<ele>99.18452563476545</ele>
<time>2016-07-30T17:59:13Z</time>
</trkpt>
<trkpt lat="49.1736545951334" lon="8.336799411159348">
<ele>99.56552563476545</ele>
<time>2016-07-30T17:59:34Z</time>
</trkpt>
<trkpt lat="49.1739925951334" lon="8.337064411159348">
<ele>99.78752563476544</ele>
<time>2016-07-30T17:59:44Z</time>
</trkpt>
<trkpt lat="49.1740455951334" lon="8.337088411159348">
<ele>99.86952563476544</ele>
<time>2016-07-30T17:59:46Z</time>
</trkpt>
<trkpt lat="49.1741565951334" lon="8.337166411159348">
<ele>99.92352563476544</ele>
<time>2016-07-30T17:59:49Z</time>
</trkpt>
<trkpt lat="49.1744295951334" lon="8.337297411159348">
<ele>100.17052563476544</ele>
<time>2016-07-30T17:59:56Z</time>
</trkpt>
<trkpt lat="49.174694595133396" lon="8.337423411159348">
<ele>100.39952563476544</ele>
<time>2016-07-30T18:00:04Z</time>
</trkpt>
<trkpt lat="49.174680595133395" lon="8.337546411159348">
<ele>100.50552563476543</ele>
<time>2016-07-30T18:00:06Z</time>
</trkpt>
<trkpt lat="49.17466759513339" lon="8.337681411159348">
<ele>100.57552563476543</ele>
<time>2016-07-30T18:00:08Z</time>
</trkpt>
<trkpt lat="49.17465959513339" lon="8.337811411159349">
<ele>100.66252563476543</ele>
<time>2016-07-30T18:00:11Z</time>
</trkpt>
<trkpt lat="49.17460459513339" lon="8.338862411159349">
<ele>101.42652563476543</ele>
<time>2016-07-30T18:00:30Z</time>
</trkpt>
<trkpt lat="49.174459595133385" lon="8.34034541115935">
<ele>102.21652563476543</ele>
<time>2016-07-30T18:00:56Z</time>
</trkpt>
<trkpt lat="49.174436595133386" lon="8.340659411159349">
<ele>102.33552563476543</ele>
<time>2016-07-30T18:01:01Z</time>
</trkpt>
<trkpt lat="49.17442759513339" lon="8.34078441115935">
<ele>102.37352563476543</ele>
<time>2016-07-30T18:01:03Z</time>
</trkpt>
<trkpt lat="49.174369595133385" lon="8.34165241115935">
<ele>102.82452563476542</ele>
<time>2016-07-30T18:01:18Z</time>
</trkpt>
<trkpt lat="49.17431759513339" lon="8.34246141115935">
<ele>103.34252563476542</ele>
<time>2016-07-30T18:01:33Z</time>
</trkpt>
<trkpt lat="49.174262595133385" lon="8.34326141115935">
<ele>103.84352563476543</ele>
<time>2016-07-30T18:01:47Z</time>
</trkpt>
<trkpt lat="49.17425559513339" lon="8.34337841115935">
<ele>103.89652563476542</ele>
<time>2016-07-30T18:01:49Z</time>
</trkpt>
<trkpt lat="49.174225595133386" lon="8.343723411159349">
<ele>104.43052563476543</ele>
<time>2016-07-30T18:01:56Z</time>
</trkpt>
<trkpt lat="49.17410559513338" lon="8.34562641115935">
<ele>107.97852563476543</ele>
<time>2016-07-30T18:02:39Z</time>
</trkpt>
<trkpt lat="49.17407259513338" lon="8.34577241115935">
<ele>108.39552563476543</ele>
<time>2016-07-30T18:02:43Z</time>
</trkpt>
<trkpt lat="49.17399059513338" lon="8.34588441115935">
<ele>108.58052563476544</ele>
<time>2016-07-30T18:02:47Z</time>
</trkpt>
<trkpt lat="49.17386959513338" lon="8.34596041115935">
<ele>108.78052563476544</ele>
<time>2016-07-30T18:02:51Z</time>
</trkpt>
<trkpt lat="49.17294959513338" lon="8.34600341115935">
<ele>110.02052563476543</ele>
<time>2016-07-30T18:03:17Z</time>
</trkpt>
<trkpt lat="49.17284259513338" lon="8.34602041115935">
<ele>110.03052563476544</ele>
<time>2016-07-30T18:03:19Z</time>
</trkpt>
<trkpt lat="49.172714595133385" lon="8.34603441115935">
<ele>110.21852563476544</ele>
<time>2016-07-30T18:03:23Z</time>
</trkpt>
<trkpt lat="49.17270759513339" lon="8.34629541115935">
<ele>110.22352563476544</ele>
<time>2016-07-30T18:03:27Z</time>
</trkpt>
<trkpt lat="49.17262359513339" lon="8.34693941115935">
<ele>110.12752563476543</ele>
<time>2016-07-30T18:03:37Z</time>
</trkpt>
<trkpt lat="49.17253959513339" lon="8.347308411159348">
<ele>109.92352563476544</ele>
<time>2016-07-30T18:03:42Z</time>
</trkpt>
<trkpt lat="49.172500595133386" lon="8.347720411159349">
<ele>109.62552563476544</ele>
<time>2016-07-30T18:03:47Z</time>
</trkpt>
<trkpt lat="49.172146595133384" lon="8.349771411159349">
<ele>107.93852563476544</ele>
<time>2016-07-30T18:04:15Z</time>
</trkpt>
<trkpt lat="49.172095595133385" lon="8.350535411159349">
<ele>107.56152563476545</ele>
<time>2016-07-30T18:04:25Z</time>
</trkpt>
<trkpt lat="49.17196159513338" lon="8.351316411159349">
<ele>107.17452563476544</ele>
<time>2016-07-30T18:04:36Z</time>
</trkpt>
<trkpt lat="49.17188859513338" lon="8.352226411159348">
<ele>106.77952563476545</ele>
<time>2016-07-30T18:04:49Z</time>
</trkpt>
<trkpt lat="49.17201759513338" lon="8.353513411159348">
<ele>106.42452563476544</ele>
<time>2016-07-30T18:05:08Z</time>
</trkpt>
<trkpt lat="49.17194459513338" lon="8.354552411159348">
<ele>106.65252563476544</ele>
<time>2016-07-30T18:05:24Z</time>
</trkpt>
<trkpt lat="49.172016595133385" lon="8.355402411159348">
<ele>107.01752563476543</ele>
<time>2016-07-30T18:05:39Z</time>
</trkpt>
<trkpt lat="49.17202159513339" lon="8.356184411159347">
<ele>107.47852563476543</ele>
<time>2016-07-30T18:05:53Z</time>
</trkpt>
<trkpt lat="49.172320595133385" lon="8.357050411159348">
<ele>108.09852563476544</ele>
<time>2016-07-30T18:06:10Z</time>
</trkpt>
<trkpt lat="49.17261259513339" lon="8.357994411159348">
<ele>108.75752563476544</ele>
<time>2016-07-30T18:06:28Z</time>
</trkpt>
<trkpt lat="49.173420595133386" lon="8.360088411159348">
<ele>109.52252563476544</ele>
<time>2016-07-30T18:07:08Z</time>
</trkpt>
<trkpt lat="49.17381359513339" lon="8.361272411159348">
<ele>109.38652563476545</ele>
<time>2016-07-30T18:07:28Z</time>
</trkpt>
<trkpt lat="49.17388059513339" lon="8.361590411159348">
<ele>109.29252563476545</ele>
<time>2016-07-30T18:07:33Z</time>
</trkpt>
<trkpt lat="49.17405959513339" lon="8.361993411159348">
<ele>109.10052563476546</ele>
<time>2016-07-30T18:07:40Z</time>
</trkpt>
<trkpt lat="49.174323595133394" lon="8.362817411159348">
<ele>108.53052563476547</ele>
<time>2016-07-30T18:07:52Z</time>
</trkpt>
<trkpt lat="49.1753555951334" lon="8.365581411159349">
<ele>105.72752563476547</ele>
<time>2016-07-30T18:08:32Z</time>
</trkpt>
<trkpt lat="49.1758895951334" lon="8.36670541115935">
<ele>105.04452563476546</ele>
<time>2016-07-30T18:08:51Z</time>
</trkpt>
<trkpt lat="49.1763875951334" lon="8.36814041115935">
<ele>104.99052563476546</ele>
<time>2016-07-30T18:09:16Z</time>
</trkpt>
<trkpt lat="49.1765665951334" lon="8.36848441115935">
<ele>105.04752563476546</ele>
<time>2016-07-30T18:09:23Z</time>
</trkpt>
<trkpt lat="49.176914595133404" lon="8.36864641115935">
<ele>105.15052563476546</ele>
<time>2016-07-30T18:09:31Z</time>
</trkpt>
<trkpt lat="49.17886659513341" lon="8.36964741115935">
<ele>105.39152563476546</ele>
<time>2016-07-30T18:10:18Z</time>
</trkpt>
<trkpt lat="49.17945959513341" lon="8.37003941115935">
<ele>105.07352563476546</ele>
<time>2016-07-30T18:10:31Z</time>
</trkpt>
<trkpt lat="49.179542595133405" lon="8.37009441115935">
<ele>105.01852563476545</ele>
<time>2016-07-30T18:10:33Z</time>
</trkpt>
<trkpt lat="49.180603595133405" lon="8.37058541115935">
<ele>103.79952563476546</ele>
<time>2016-07-30T18:10:54Z</time>
</trkpt>
<trkpt lat="49.180749595133406" lon="8.37063141115935">
<ele>103.62352563476546</ele>
<time>2016-07-30T18:10:57Z</time>
</trkpt>
<trkpt lat="49.1809195951334" lon="8.370613411159349">
<ele>103.36552563476546</ele>
<time>2016-07-30T18:11:00Z</time>
</trkpt>
<trkpt lat="49.1810415951334" lon="8.370552411159348">
<ele>103.19252563476546</ele>
<time>2016-07-30T18:11:03Z</time>
</trkpt>
<trkpt lat="49.1811785951334" lon="8.370455411159348">
<ele>102.97052563476547</ele>
<time>2016-07-30T18:11:05Z</time>
</trkpt>
<trkpt lat="49.1812325951334" lon="8.370417411159348">
<ele>102.88652563476546</ele>
<time>2016-07-30T18:11:07Z</time>
</trkpt>
<trkpt lat="49.181366595133404" lon="8.370365411159348">
<ele>102.70352563476546</ele>
<time>2016-07-30T18:11:09Z</time>
</trkpt>
<trkpt lat="49.1816175951334" lon="8.370247411159347">
<ele>102.33352563476545</ele>
<time>2016-07-30T18:11:14Z</time>
</trkpt>
<trkpt lat="49.181681595133405" lon="8.370244411159348">
<ele>102.25252563476545</ele>
<time>2016-07-30T18:11:15Z</time>
</trkpt>
<trkpt lat="49.181777595133404" lon="8.370316411159347">
<ele>102.13152563476545</ele>
<time>2016-07-30T18:11:17Z</time>
</trkpt>
<trkpt lat="49.1818035951334" lon="8.370348411159346">
<ele>102.04652563476546</ele>
<time>2016-07-30T18:11:18Z</time>
</trkpt>
<trkpt lat="49.182559595133405" lon="8.372391411159347">
<ele>100.86252563476546</ele>
<time>2016-07-30T18:11:48Z</time>
</trkpt>
<trkpt lat="49.1826305951334" lon="8.372449411159346">
<ele>100.86752563476546</ele>
<time>2016-07-30T18:11:50Z</time>
</trkpt>
<trkpt lat="49.1827135951334" lon="8.372472411159347">
<ele>100.80252563476546</ele>
<time>2016-07-30T18:11:52Z</time>
</trkpt>
<trkpt lat="49.1827605951334" lon="8.372549411159346">
<ele>100.89152563476546</ele>
<time>2016-07-30T18:11:54Z</time>
</trkpt>
<trkpt lat="49.182931595133404" lon="8.372799411159345">
<ele>100.94352563476546</ele>
<time>2016-07-30T18:11:59Z</time>
</trkpt>
<trkpt lat="49.18376359513341" lon="8.373545411159345">
<ele>101.61652563476547</ele>
<time>2016-07-30T18:12:23Z</time>
</trkpt>
<trkpt lat="49.18471959513341" lon="8.374496411159345">
<ele>102.32352563476546</ele>
<time>2016-07-30T18:12:52Z</time>
</trkpt>
<trkpt lat="49.18494959513341" lon="8.374574411159346">
<ele>102.36152563476546</ele>
<time>2016-07-30T18:12:57Z</time>
</trkpt>
<trkpt lat="49.18667259513341" lon="8.374590411159346">
<ele>101.98252563476545</ele>
<time>2016-07-30T18:13:34Z</time>
</trkpt>
<trkpt lat="49.18684459513341" lon="8.374614411159346">
<ele>101.89252563476545</ele>
<time>2016-07-30T18:13:37Z</time>
</trkpt>
<trkpt lat="49.18686359513341" lon="8.374796411159346">
<ele>101.97052563476545</ele>
<time>2016-07-30T18:13:40Z</time>
</trkpt>
<trkpt lat="49.18696959513341" lon="8.376250411159347">
<ele>102.12352563476546</ele>
<time>2016-07-30T18:14:02Z</time>
</trkpt>
<trkpt lat="49.18703959513341" lon="8.377520411159347">
<ele>102.19752563476546</ele>
<time>2016-07-30T18:14:21Z</time>
</trkpt>
<trkpt lat="49.18710859513342" lon="8.377949411159348">
<ele>102.14052563476545</ele>
<time>2016-07-30T18:14:28Z</time>
</trkpt>
<trkpt lat="49.187207595133415" lon="8.378428411159348">
<ele>101.93752563476545</ele>
<time>2016-07-30T18:14:34Z</time>
</trkpt>
<trkpt lat="49.18731659513342" lon="8.378662411159349">
<ele>101.77352563476545</ele>
<time>2016-07-30T18:14:38Z</time>
</trkpt>
<trkpt lat="49.187719595133416" lon="8.37929541115935">
<ele>101.13952563476545</ele>
<time>2016-07-30T18:14:49Z</time>
</trkpt>
<trkpt lat="49.188521595133416" lon="8.380470411159349">
<ele>99.48652563476544</ele>
<time>2016-07-30T18:15:09Z</time>
</trkpt>
<trkpt lat="49.18871259513342" lon="8.38065241115935">
<ele>99.26652563476544</ele>
<time>2016-07-30T18:15:14Z</time>
</trkpt>
<trkpt lat="49.188778595133414" lon="8.38069441115935">
<ele>99.16952563476545</ele>
<time>2016-07-30T18:15:15Z</time>
</trkpt>
<trkpt lat="49.18911459513341" lon="8.38082941115935">
<ele>98.85652563476545</ele>
<time>2016-07-30T18:15:22Z</time>
</trkpt>
<trkpt lat="49.19057759513341" lon="8.38123241115935">
<ele>98.39352563476545</ele>
<time>2016-07-30T18:15:53Z</time>
</trkpt>
<trkpt lat="49.19225859513341" lon="8.381590411159351">
<ele>99.18252563476545</ele>
<time>2016-07-30T18:16:34Z</time>
</trkpt>
<trkpt lat="49.19428159513341" lon="8.382098411159351">
<ele>100.16052563476545</ele>
<time>2016-07-30T18:17:24Z</time>
</trkpt>
<trkpt lat="49.19458759513341" lon="8.38217941115935">
<ele>100.24252563476544</ele>
<time>2016-07-30T18:17:31Z</time>
</trkpt>
<trkpt lat="49.201645595133414" lon="8.38396441115935">
<ele>98.35552563476544</ele>
<time>2016-07-30T18:20:03Z</time>
</trkpt>
<trkpt lat="49.20230459513341" lon="8.384134411159351">
<ele>98.43652563476545</ele>
<time>2016-07-30T18:20:18Z</time>
</trkpt>
<trkpt lat="49.202373595133416" lon="8.384152411159352">
<ele>98.43652563476545</ele>
<time>2016-07-30T18:20:20Z</time>
</trkpt>
<trkpt lat="49.204349595133415" lon="8.384662411159352">
<ele>99.82852563476544</ele>
<time>2016-07-30T18:21:10Z</time>
</trkpt>
<trkpt lat="49.20542259513341" lon="8.384928411159352">
<ele>99.81652563476544</ele>
<time>2016-07-30T18:21:34Z</time>
</trkpt>
<trkpt lat="49.20681359513341" lon="8.385128411159352">
<ele>98.62652563476544</ele>
<time>2016-07-30T18:22:02Z</time>
</trkpt>
<trkpt lat="49.20774159513341" lon="8.385199411159352">
<ele>97.97452563476544</ele>
<time>2016-07-30T18:22:20Z</time>
</trkpt>
<trkpt lat="49.20973459513341" lon="8.385203411159353">
<ele>97.71352563476545</ele>
<time>2016-07-30T18:23:03Z</time>
</trkpt>
<trkpt lat="49.210372595133414" lon="8.385160411159353">
<ele>97.82752563476545</ele>
<time>2016-07-30T18:23:18Z</time>
</trkpt>
<trkpt lat="49.210636595133415" lon="8.385152411159353">
<ele>97.88752563476545</ele>
<time>2016-07-30T18:23:24Z</time>
</trkpt>
<trkpt lat="49.21098359513341" lon="8.385108411159353">
<ele>97.97252563476545</ele>
<time>2016-07-30T18:23:32Z</time>
</trkpt>
<trkpt lat="49.21234959513341" lon="8.384901411159353">
<ele>98.36152563476544</ele>
<time>2016-07-30T18:24:04Z</time>
</trkpt>
<trkpt lat="49.21503259513341" lon="8.384241411159353">
<ele>98.85352563476545</ele>
<time>2016-07-30T18:25:07Z</time>
</trkpt>
<trkpt lat="49.21608759513341" lon="8.383947411159353">
<ele>98.97052563476545</ele>
<time>2016-07-30T18:25:31Z</time>
</trkpt>
</trkseg>
</trk>
</gpx>
